Observation data for Stamford on 07/20/2019      Previous  Date       Current Mesonet Observations  Soil Data  Daily Summary Page  Observations in Plain Language
KST2 200500Z 17013KT 29/18 A2991 RMK A01 T02940182  RH  051%=      5-min Rain = 0
KST2 200501Z 17015KT 29/18 A2991 RMK A01 T02940182  RH  051%=      5-min Rain = 0
KST2 200502Z 16014G19KT 29/18 A2991 RMK A01 T02940182  RH  051%=      5-min Rain = 0
KST2 200503Z 17014KT 29/18 A2991 RMK A01 T02940182  RH  051%=      5-min Rain = 0
KST2 200504Z 17014KT 30/18 A2991 RMK A01 T02950183  RH  051%=      5-min Rain = 0
KST2 200505Z 17017KT 29/18 A2991 RMK A01 T02940183  RH  051%=      5-min Rain = 0
KST2 200506Z 16015KT 30/18 A2991 RMK A01 T02950183  RH  051%=      5-min Rain = 0
KST2 200507Z 17015KT 30/18 A2991 RMK A01 T02950183  RH  051%=      5-min Rain = 0
KST2 200508Z 17015KT 30/18 A2991 RMK A01 T02950183  RH  051%=      5-min Rain = 0
KST2 200509Z 17015KT 30/18 A2991 RMK A01 T02950183  RH  051%=      5-min Rain = 0
KST2 200510Z 17016KT 30/18 A2991 RMK A01 T02950183  RH  051%=      5-min Rain = 0
KST2 200511Z 17015KT 30/18 A2991 RMK A01 T02950183  RH  051%=      5-min Rain = 0
KST2 200512Z 17016KT 30/18 A2991 RMK A01 T02950183  RH  051%=      5-min Rain = 0
KST2 200513Z 16017KT 30/18 A2991 RMK A01 T02950184  RH  051%=      5-min Rain = 0
KST2 200514Z 17016KT 30/18 A299 RMK A01 T02950183  RH  051%=      5-min Rain = 0
KST2 200515Z 17015KT 30/18 A2991 RMK A01 T02950184  RH  051%=      5-min Rain = 0
KST2 200516Z 17014KT 30/18 A2991 RMK A01 T02950184  RH  051%=      5-min Rain = 0
KST2 200517Z 17014KT 30/18 A2991 RMK A01 T02950184  RH  051%=      5-min Rain = 0
KST2 200518Z 17015KT 29/18 A2991 RMK A01 T02940184  RH  051%=      5-min Rain = 0
KST2 200519Z 16015KT 29/18 A2991 RMK A01 T02940184  RH  052%=      5-min Rain = 0
KST2 200520Z 17014KT 29/18 A2991 RMK A01 T02940184  RH  052%=      5-min Rain = 0
KST2 200521Z 17016KT 29/18 A2991 RMK A01 T02940184  RH  052%=      5-min Rain = 0
KST2 200522Z 17017KT 29/18 A2991 RMK A01 T02940184  RH  052%=      5-min Rain = 0
KST2 200523Z 17014KT 29/18 A2991 RMK A01 T02940184  RH  052%=      5-min Rain = 0
KST2 200524Z 17016KT 29/18 A2991 RMK A01 T02940184  RH  052%=      5-min Rain = 0
KST2 200525Z 17016KT 29/19 A2991 RMK A01 T02940185  RH  052%=      5-min Rain = 0
KST2 200526Z 17015KT 29/19 A2991 RMK A01 T02940185  RH  052%=      5-min Rain = 0
KST2 200527Z 17017KT 29/19 A2991 RMK A01 T02940185  RH  052%=      5-min Rain = 0
KST2 200528Z 17017KT 29/19 A2991 RMK A01 T02940185  RH  052%=      5-min Rain = 0
KST2 200529Z 17015KT 29/19 A2991 RMK A01 T02940185  RH  052%=      5-min Rain = 0
KST2 200530Z 17015G20KT 29/19 A2991 RMK A01 T02940185  RH  052%=      5-min Rain = 0
KST2 200531Z 17017KT 29/19 A2991 RMK A01 T02940185  RH  052%=      5-min Rain = 0
KST2 200532Z 17016KT 29/19 A2991 RMK A01 T02930185  RH  052%=      5-min Rain = 0
KST2 200533Z 17016KT 29/19 A2991 RMK A01 T02940185  RH  052%=      5-min Rain = 0
KST2 200534Z 17015KT 29/19 A2991 RMK A01 T02930185  RH  052%=      5-min Rain = 0
KST2 200535Z 17016KT 29/19 A2991 RMK A01 T02930185  RH  052%=      5-min Rain = 0
KST2 200536Z 16015KT 29/19 A2991 RMK A01 T02930185  RH  052%=      5-min Rain = 0
KST2 200537Z 17013KT 29/19 A2991 RMK A01 T02930185  RH  052%=      5-min Rain = 0
KST2 200538Z 17015KT 29/19 A2991 RMK A01 T02930185  RH  052%=      5-min Rain = 0
KST2 200539Z 17014KT 29/19 A2991 RMK A01 T02920185  RH  053%=      5-min Rain = 0
KST2 200540Z 17014KT 29/19 A2991 RMK A01 T02920185  RH  053%=      5-min Rain = 0
KST2 200541Z 17015KT 29/19 A2991 RMK A01 T02920186  RH  053%=      5-min Rain = 0
KST2 200542Z 17016KT 29/19 A2991 RMK A01 T02910185  RH  053%=      5-min Rain = 0
KST2 200543Z 17016KT 29/19 A2991 RMK A01 T02910185  RH  053%=      5-min Rain = 0
KST2 200544Z 17014KT 29/19 A2991 RMK A01 T02910185  RH  053%=      5-min Rain = 0
KST2 200545Z 17014KT 29/19 A2991 RMK A01 T02920186  RH  053%=      5-min Rain = 0
KST2 200546Z 17014KT 29/19 A2991 RMK A01 T02910186  RH  053%=      5-min Rain = 0
KST2 200547Z 17015KT 29/19 A2991 RMK A01 T02910186  RH  053%=      5-min Rain = 0
KST2 200548Z 17015KT 29/19 A2991 RMK A01 T02910186  RH  053%=      5-min Rain = 0
KST2 200549Z 17015KT 29/19 A299 RMK A01 T02910186  RH  053%=      5-min Rain = 0
KST2 200550Z 17014KT 29/19 A299 RMK A01 T02910186  RH  053%=      5-min Rain = 0
KST2 200551Z 17014KT 29/19 A299 RMK A01 T02900186  RH  053%=      5-min Rain = 0
KST2 200552Z 17014KT 29/19 A299 RMK A01 T02900186  RH  053%=      5-min Rain = 0
KST2 200553Z 17014KT 29/19 A299 RMK A01 T02900186  RH  053%=      5-min Rain = 0
KST2 200554Z 17015KT 29/19 A299 RMK A01 T02900186  RH  054%=      5-min Rain = 0
KST2 200555Z 18016KT 29/19 A299 RMK A01 T02890186  RH  054%=      5-min Rain = 0
KST2 200556Z 17014KT 29/19 A299 RMK A01 T02900186  RH  054%=      5-min Rain = 0
KST2 200557Z 17016KT 29/19 A299 RMK A01 T02890186  RH  054%=      5-min Rain = 0
KST2 200558Z 17013KT 29/19 A299 RMK A01 T02900186  RH  054%=      5-min Rain = 0
KST2 200559Z 17015KT 29/19 A299 RMK A01 T02890186  RH  054%=      5-min Rain = 0
KST2 200600Z 17015G20KT 29/19 A299 RMK A01 T02890186  RH  054%=      5-min Rain = 0
KST2 200601Z 17014KT 29/19 A299 RMK A01 T02890186  RH  054%=      5-min Rain = 0
KST2 200602Z 17015KT 29/19 A299 RMK A01 T02900187  RH  054%=      5-min Rain = 0
KST2 200603Z 17016KT 29/19 A299 RMK A01 T02900187  RH  054%=      5-min Rain = 0
KST2 200604Z 17014KT 29/19 A299 RMK A01 T02890186  RH  054%=      5-min Rain = 0
KST2 200605Z 17013KT 29/19 A299 RMK A01 T02890187  RH  054%=      5-min Rain = 0
KST2 200606Z 17015KT 29/19 A299 RMK A01 T02890187  RH  054%=      5-min Rain = 0
KST2 200607Z 18015KT 29/19 A299 RMK A01 T02890187  RH  054%=      5-min Rain = 0
KST2 200608Z 17016KT 29/19 A299 RMK A01 T02890187  RH  054%=      5-min Rain = 0
KST2 200609Z 18015KT 29/19 A299 RMK A01 T02890187  RH  054%=      5-min Rain = 0
KST2 200610Z 18015KT 29/19 A299 RMK A01 T02890187  RH  054%=      5-min Rain = 0
KST2 200611Z 17014KT 29/19 A299 RMK A01 T02880186  RH  054%=      5-min Rain = 0
KST2 200612Z 17015KT 29/19 A299 RMK A01 T02880187  RH  054%=      5-min Rain = 0
KST2 200613Z 18016KT 29/19 A299 RMK A01 T02890187  RH  054%=      5-min Rain = 0
KST2 200614Z 17016KT 29/19 A299 RMK A01 T02890187  RH  054%=      5-min Rain = 0
KST2 200615Z 17015KT 29/19 A299 RMK A01 T02890187  RH  054%=      5-min Rain = 0
KST2 200616Z 17015KT 29/19 A299 RMK A01 T02880187  RH  054%=      5-min Rain = 0
KST2 200617Z 18015KT 29/19 A299 RMK A01 T02880187  RH  054%=      5-min Rain = 0
KST2 200618Z 17015KT 29/19 A299 RMK A01 T02880187  RH  054%=      5-min Rain = 0
KST2 200619Z 17016KT 29/19 A299 RMK A01 T02880187  RH  054%=      5-min Rain = 0
KST2 200620Z 18015KT 29/19 A299 RMK A01 T02880187  RH  054%=      5-min Rain = 0
KST2 200621Z 18016KT 29/19 A299 RMK A01 T02880188  RH  055%=      5-min Rain = 0
KST2 200622Z 17014KT 29/19 A299 RMK A01 T02880188  RH  055%=      5-min Rain = 0
KST2 200623Z 17013KT 29/19 A299 RMK A01 T02880187  RH  055%=      5-min Rain = 0
KST2 200624Z 17014KT 29/19 A299 RMK A01 T02880187  RH  055%=      5-min Rain = 0
KST2 200625Z 18013KT 29/19 A299 RMK A01 T02870187  RH  055%=      5-min Rain = 0
KST2 200626Z 18014KT 29/19 A299 RMK A01 T02870187  RH  055%=      5-min Rain = 0
KST2 200627Z 17012KT 29/19 A299 RMK A01 T02870187  RH  055%=      5-min Rain = 0
KST2 200628Z 17013KT 29/19 A299 RMK A01 T02870187  RH  055%=      5-min Rain = 0
KST2 200629Z 18014KT 29/19 A299 RMK A01 T02870188  RH  055%=      5-min Rain = 0
KST2 200630Z 17014KT 29/19 A299 RMK A01 T02870187  RH  055%=      5-min Rain = 0
KST2 200631Z 18015KT 29/19 A299 RMK A01 T02870187  RH  055%=      5-min Rain = 0
KST2 200632Z 18014G19KT 29/19 A299 RMK A01 T02870188  RH  055%=      5-min Rain = 0
KST2 200633Z 18014G19KT 29/19 A299 RMK A01 T02870188  RH  055%=      5-min Rain = 0
KST2 200634Z 18013KT 29/19 A299 RMK A01 T02870188  RH  055%=      5-min Rain = 0
KST2 200635Z 18014KT 29/19 A299 RMK A01 T02870188  RH  055%=      5-min Rain = 0
KST2 200636Z 18016KT 29/19 A299 RMK A01 T02860188  RH  055%=      5-min Rain = 0
KST2 200637Z 18015KT 29/19 A299 RMK A01 T02860188  RH  055%=      5-min Rain = 0
KST2 200638Z 18014KT 29/19 A299 RMK A01 T02860188  RH  055%=      5-min Rain = 0
KST2 200639Z 18013KT 29/19 A299 RMK A01 T02860188  RH  055%=      5-min Rain = 0
KST2 200640Z 18014KT 29/19 A299 RMK A01 T02860188  RH  055%=      5-min Rain = 0
KST2 200641Z 18016KT 29/19 A299 RMK A01 T02860188  RH  055%=      5-min Rain = 0
KST2 200642Z 18015KT 29/19 A299 RMK A01 T02860188  RH  055%=      5-min Rain = 0
KST2 200643Z 17015KT 29/19 A299 RMK A01 T02860188  RH  055%=      5-min Rain = 0
KST2 200644Z 18014KT 29/19 A299 RMK A01 T02860188  RH  055%=      5-min Rain = 0
KST2 200645Z 18013KT 29/19 A299 RMK A01 T02860188  RH  055%=      5-min Rain = 0
KST2 200646Z 17013KT 29/19 A299 RMK A01 T02860188  RH  056%=      5-min Rain = 0
KST2 200647Z 17013G18KT 29/19 A299 RMK A01 T02850188  RH  056%=      5-min Rain = 0
KST2 200648Z 18013KT 29/19 A299 RMK A01 T02850188  RH  056%=      5-min Rain = 0
KST2 200649Z 18013KT 29/19 A299 RMK A01 T02850188  RH  056%=      5-min Rain = 0
KST2 200650Z 17014KT 28/19 A299 RMK A01 T02840188  RH  056%=      5-min Rain = 0
KST2 200651Z 17013KT 28/19 A299 RMK A01 T02840188  RH  056%=      5-min Rain = 0
KST2 200652Z 18014KT 29/19 A299 RMK A01 T02850189  RH  056%=      5-min Rain = 0
KST2 200653Z 18015KT 28/19 A299 RMK A01 T02840188  RH  056%=      5-min Rain = 0
KST2 200654Z 18015KT 28/19 A299 RMK A01 T02840188  RH  056%=      5-min Rain = 0
KST2 200655Z 18016KT 29/19 A299 RMK A01 T02850189  RH  056%=      5-min Rain = 0
KST2 200656Z 17015KT 29/19 A299 RMK A01 T02850189  RH  056%=      5-min Rain = 0
KST2 200657Z 17015KT 29/19 A299 RMK A01 T02850189  RH  056%=      5-min Rain = 0
KST2 200658Z 18013KT 29/19 A299 RMK A01 T02850189  RH  056%=      5-min Rain = 0
KST2 200659Z 18018KT 29/19 A299 RMK A01 T02850189  RH  056%=      5-min Rain = 0
KST2 200700Z 18014KT 29/19 A299 RMK A01 T02850189  RH  056%=      5-min Rain = 0
KST2 200701Z 17013KT 29/19 A299 RMK A01 T02850189  RH  056%=      5-min Rain = 0
KST2 200702Z 18016KT 29/19 A299 RMK A01 T02850189  RH  056%=      5-min Rain = 0
KST2 200703Z 18015KT 28/19 A299 RMK A01 T02840189  RH  056%=      5-min Rain = 0
KST2 200704Z 18013KT 29/19 A299 RMK A01 T02850189  RH  056%=      5-min Rain = 0
KST2 200705Z 18012KT 28/19 A299 RMK A01 T02840189  RH  056%=      5-min Rain = 0
KST2 200706Z 18017KT 28/19 A299 RMK A01 T02830189  RH  057%=      5-min Rain = 0
KST2 200707Z 18016KT 28/19 A299 RMK A01 T02830189  RH  057%=      5-min Rain = 0
KST2 200708Z 18015KT 28/19 A299 RMK A01 T02840189  RH  056%=      5-min Rain = 0
KST2 200709Z 18012KT 28/19 A299 RMK A01 T02840189  RH  056%=      5-min Rain = 0
KST2 200710Z 17014KT 28/19 A299 RMK A01 T02840189  RH  057%=      5-min Rain = 0
KST2 200711Z 18016KT 28/19 A299 RMK A01 T02840190  RH  057%=      5-min Rain = 0
KST2 200712Z 18016KT 28/19 A299 RMK A01 T02830189  RH  057%=      5-min Rain = 0
KST2 200713Z 18014KT 28/19 A299 RMK A01 T02830190  RH  057%=      5-min Rain = 0
KST2 200714Z 18015KT 28/19 A299 RMK A01 T02830190  RH  057%=      5-min Rain = 0
KST2 200715Z 18016KT 28/19 A299 RMK A01 T02840190  RH  057%=      5-min Rain = 0
KST2 200716Z 18015KT 28/19 A299 RMK A01 T02830190  RH  057%=      5-min Rain = 0
KST2 200717Z 18013KT 28/19 A299 RMK A01 T02830190  RH  057%=      5-min Rain = 0
KST2 200718Z 18016KT 28/19 A299 RMK A01 T02830190  RH  057%=      5-min Rain = 0
KST2 200719Z 18015KT 28/19 A299 RMK A01 T02830190  RH  057%=      5-min Rain = 0
KST2 200720Z 18015KT 28/19 A299 RMK A01 T02830190  RH  057%=      5-min Rain = 0
KST2 200721Z 18015KT 28/19 A299 RMK A01 T02830190  RH  057%=      5-min Rain = 0
KST2 200722Z 18013KT 28/19 A299 RMK A01 T02830190  RH  057%=      5-min Rain = 0
KST2 200723Z 18014KT 28/19 A299 RMK A01 T02820190  RH  057%=      5-min Rain = 0
KST2 200724Z 18012KT 28/19 A299 RMK A01 T02820190  RH  058%=      5-min Rain = 0
KST2 200725Z 18014KT 28/19 A299 RMK A01 T02810190  RH  058%=      5-min Rain = 0
KST2 200726Z 18015KT 28/19 A299 RMK A01 T02820190  RH  058%=      5-min Rain = 0
KST2 200727Z 18015KT 28/19 A299 RMK A01 T02820190  RH  058%=      5-min Rain = 0
KST2 200728Z 18014KT 28/19 A299 RMK A01 T02820190  RH  058%=      5-min Rain = 0
KST2 200729Z 18015KT 28/19 A299 RMK A01 T02810190  RH  058%=      5-min Rain = 0
KST2 200730Z 18015KT 28/19 A299 RMK A01 T02820190  RH  058%=      5-min Rain = 0
KST2 200731Z 18014KT 28/19 A299 RMK A01 T02810190  RH  058%=      5-min Rain = 0
KST2 200732Z 18015KT 28/19 A299 RMK A01 T02820191  RH  058%=      5-min Rain = 0
KST2 200733Z 18015KT 28/19 A299 RMK A01 T02810191  RH  058%=      5-min Rain = 0
KST2 200734Z 18015KT 28/19 A299 RMK A01 T02810190  RH  058%=      5-min Rain = 0
KST2 200735Z 18014KT 28/19 A299 RMK A01 T02810191  RH  058%=      5-min Rain = 0
KST2 200736Z 18013KT 28/19 A299 RMK A01 T02810191  RH  058%=      5-min Rain = 0
KST2 200737Z 18012KT 28/19 A299 RMK A01 T02810191  RH  058%=      5-min Rain = 0
KST2 200738Z 18012KT 28/19 A299 RMK A01 T02800191  RH  058%=      5-min Rain = 0
KST2 200739Z 18014KT 28/19 A299 RMK A01 T02800191  RH  058%=      5-min Rain = 0
KST2 200740Z 18016KT 28/19 A299 RMK A01 T02800191  RH  058%=      5-min Rain = 0
KST2 200741Z 18015KT 28/19 A299 RMK A01 T02800191  RH  058%=      5-min Rain = 0
KST2 200742Z 18014KT 28/19 A299 RMK A01 T02800191  RH  058%=      5-min Rain = 0
KST2 200743Z 18015KT 28/19 A299 RMK A01 T02800191  RH  058%=      5-min Rain = 0
KST2 200744Z 18014KT 28/19 A299 RMK A01 T02800191  RH  058%=      5-min Rain = 0
KST2 200745Z 18013KT 28/19 A299 RMK A01 T02800191  RH  059%=      5-min Rain = 0
KST2 200746Z 18013KT 28/19 A299 RMK A01 T02800192  RH  059%=      5-min Rain = 0
KST2 200747Z 18014KT 28/19 A299 RMK A01 T02800192  RH  059%=      5-min Rain = 0
KST2 200748Z 18015KT 28/19 A299 RMK A01 T02790192  RH  059%=      5-min Rain = 0
KST2 200749Z 18016KT 28/19 A299 RMK A01 T02790192  RH  059%=      5-min Rain = 0
KST2 200750Z 18016KT 28/19 A299 RMK A01 T02790192  RH  059%=      5-min Rain = 0
KST2 200751Z 18014KT 28/19 A299 RMK A01 T02800193  RH  059%=      5-min Rain = 0
KST2 200752Z 18014KT 28/19 A299 RMK A01 T02800192  RH  059%=      5-min Rain = 0
KST2 200753Z 18015KT 28/19 A299 RMK A01 T02800192  RH  059%=      5-min Rain = 0
KST2 200754Z 18015KT 28/19 A2989 RMK A01 T02800192  RH  059%=      5-min Rain = 0
KST2 200755Z 18015KT 28/19 A2989 RMK A01 T02800193  RH  059%=      5-min Rain = 0
KST2 200756Z 18015KT 28/19 A2989 RMK A01 T02800193  RH  059%=      5-min Rain = 0
KST2 200757Z 18015KT 28/19 A2989 RMK A01 T02800193  RH  059%=      5-min Rain = 0
KST2 200758Z 18014KT 28/19 A2989 RMK A01 T02800193  RH  059%=      5-min Rain = 0
KST2 200759Z 18015KT 28/19 A2989 RMK A01 T02800193  RH  059%=      5-min Rain = 0
KST2 200800Z 18017KT 28/19 A2989 RMK A01 T02800193  RH  059%=      5-min Rain = 0
KST2 200801Z 18017KT 28/19 A2989 RMK A01 T02800194  RH  059%=      5-min Rain = 0
KST2 200802Z 18017KT 28/19 A2989 RMK A01 T02800194  RH  059%=      5-min Rain = 0
KST2 200803Z 18015KT 28/19 A2989 RMK A01 T02800194  RH  059%=      5-min Rain = 0
KST2 200804Z 18014KT 28/19 A2989 RMK A01 T02800194  RH  059%=      5-min Rain = 0
KST2 200805Z 18013KT 28/19 A2989 RMK A01 T02800194  RH  060%=      5-min Rain = 0
KST2 200806Z 18013KT 28/19 A2989 RMK A01 T02790194  RH  060%=      5-min Rain = 0
KST2 200807Z 18014KT 28/19 A2989 RMK A01 T02790194  RH  060%=      5-min Rain = 0
KST2 200808Z 18014KT 28/19 A2989 RMK A01 T02790194  RH  060%=      5-min Rain = 0
KST2 200809Z 18015KT 28/20 A2989 RMK A01 T02790195  RH  060%=      5-min Rain = 0
KST2 200810Z 18016KT 28/20 A299 RMK A01 T02790195  RH  060%=      5-min Rain = 0
KST2 200811Z 18014KT 28/20 A299 RMK A01 T02790195  RH  060%=      5-min Rain = 0
KST2 200812Z 18015KT 28/20 A299 RMK A01 T02790195  RH  060%=      5-min Rain = 0
KST2 200813Z 18011KT 28/20 A299 RMK A01 T02800196  RH  060%=      5-min Rain = 0
KST2 200814Z 18013KT 28/20 A299 RMK A01 T02790195  RH  060%=      5-min Rain = 0
KST2 200815Z 18013KT 28/20 A299 RMK A01 T02780195  RH  061%=      5-min Rain = 0
KST2 200816Z 18014KT 28/20 A299 RMK A01 T02780196  RH  061%=      5-min Rain = 0
KST2 200817Z 18011KT 28/20 A299 RMK A01 T02780195  RH  061%=      5-min Rain = 0
KST2 200818Z 18013KT 28/20 A2989 RMK A01 T02780196  RH  061%=      5-min Rain = 0
KST2 200819Z 18015KT 28/20 A2989 RMK A01 T02770196  RH  061%=      5-min Rain = 0
KST2 200820Z 18014KT 28/20 A2989 RMK A01 T02770196  RH  061%=      5-min Rain = 0
KST2 200821Z 18015KT 28/20 A2989 RMK A01 T02780196  RH  061%=      5-min Rain = 0
KST2 200822Z 18015KT 28/20 A2989 RMK A01 T02780196  RH  061%=      5-min Rain = 0
KST2 200823Z 18015KT 28/20 A2989 RMK A01 T02770197  RH  061%=      5-min Rain = 0
KST2 200824Z 18015KT 28/20 A2989 RMK A01 T02770197  RH  061%=      5-min Rain = 0
KST2 200825Z 18014KT 28/20 A2989 RMK A01 T02770197  RH  062%=      5-min Rain = 0
KST2 200826Z 18013KT 28/20 A2989 RMK A01 T02770197  RH  062%=      5-min Rain = 0
KST2 200827Z 18014KT 28/20 A2989 RMK A01 T02770197  RH  062%=      5-min Rain = 0
KST2 200828Z 18012KT 28/20 A2989 RMK A01 T02770198  RH  062%=      5-min Rain = 0
KST2 200829Z 18013KT 28/20 A2989 RMK A01 T02770198  RH  062%=      5-min Rain = 0
KST2 200830Z 18015KT 28/20 A2989 RMK A01 T02760198  RH  062%=      5-min Rain = 0
KST2 200831Z 18012KT 28/20 A2989 RMK A01 T02760198  RH  062%=      5-min Rain = 0
KST2 200832Z 18014KT 28/20 A2989 RMK A01 T02760198  RH  062%=      5-min Rain = 0
KST2 200833Z 18013KT 28/20 A2989 RMK A01 T02770199  RH  062%=      5-min Rain = 0
KST2 200834Z 18013KT 28/20 A299 RMK A01 T02770199  RH  063%=      5-min Rain = 0
KST2 200835Z 18015KT 28/20 A2989 RMK A01 T02770200  RH  063%=      5-min Rain = 0
KST2 200836Z 18012KT 28/20 A299 RMK A01 T02770200  RH  063%=      5-min Rain = 0
KST2 200837Z 18014KT 28/20 A299 RMK A01 T02770200  RH  063%=      5-min Rain = 0
KST2 200838Z 18015KT 28/20 A2989 RMK A01 T02760199  RH  063%=      5-min Rain = 0
KST2 200839Z 18013KT 28/20 A2989 RMK A01 T02760200  RH  063%=      5-min Rain = 0
KST2 200840Z 18013KT 28/20 A2989 RMK A01 T02760200  RH  063%=      5-min Rain = 0
KST2 200841Z 18013KT 28/20 A2989 RMK A01 T02760200  RH  063%=      5-min Rain = 0
KST2 200842Z 18014KT 28/20 A2989 RMK A01 T02760200  RH  063%=      5-min Rain = 0
KST2 200843Z 18014KT 28/20 A2989 RMK A01 T02760201  RH  064%=      5-min Rain = 0
KST2 200844Z 18013KT 28/20 A2989 RMK A01 T02760200  RH  064%=      5-min Rain = 0
KST2 200845Z 18015KT 28/20 A2989 RMK A01 T02760201  RH  064%=      5-min Rain = 0
KST2 200846Z 18014KT 28/20 A2989 RMK A01 T02760201  RH  064%=      5-min Rain = 0
KST2 200847Z 18015KT 28/20 A2989 RMK A01 T02750201  RH  064%=      5-min Rain = 0
KST2 200848Z 18013KT 28/20 A2989 RMK A01 T02760201  RH  064%=      5-min Rain = 0
KST2 200849Z 18014KT 28/20 A2989 RMK A01 T02750201  RH  064%=      5-min Rain = 0
KST2 200850Z 18014KT 28/20 A2989 RMK A01 T02750201  RH  064%=      5-min Rain = 0
KST2 200851Z 18014KT 28/20 A2989 RMK A01 T02750202  RH  064%=      5-min Rain = 0
KST2 200852Z 18013KT 28/20 A2989 RMK A01 T02750202  RH  064%=      5-min Rain = 0
KST2 200853Z 18012KT 28/20 A2989 RMK A01 T02750202  RH  065%=      5-min Rain = 0
KST2 200854Z 18013KT 27/20 A2989 RMK A01 T02740202  RH  065%=      5-min Rain = 0
KST2 200855Z 18013KT 27/20 A2989 RMK A01 T02740202  RH  065%=      5-min Rain = 0
KST2 200856Z 18014KT 27/20 A2989 RMK A01 T02740202  RH  065%=      5-min Rain = 0
KST2 200857Z 18014KT 27/20 A2989 RMK A01 T02740203  RH  065%=      5-min Rain = 0
KST2 200858Z 18015KT 27/20 A2989 RMK A01 T02740203  RH  065%=      5-min Rain = 0
KST2 200859Z 18014KT 27/20 A2989 RMK A01 T02740203  RH  065%=      5-min Rain = 0
KST2 200900Z 18015KT 27/20 A2989 RMK A01 T02740203  RH  065%=      5-min Rain = 0
KST2 200901Z 18013KT 27/20 A2989 RMK A01 T02740203  RH  065%=      5-min Rain = 0
KST2 200902Z 18013KT 27/20 A2989 RMK A01 T02740203  RH  065%=      5-min Rain = 0
KST2 200903Z 18012KT 27/20 A2989 RMK A01 T02740204  RH  066%=      5-min Rain = 0
KST2 200904Z 18015KT 27/20 A2989 RMK A01 T02730203  RH  066%=      5-min Rain = 0
KST2 200905Z 18016KT 27/20 A2989 RMK A01 T02730204  RH  066%=      5-min Rain = 0
KST2 200906Z 18014KT 27/20 A2989 RMK A01 T02730204  RH  066%=      5-min Rain = 0
KST2 200907Z 18014KT 27/20 A2989 RMK A01 T02730204  RH  066%=      5-min Rain = 0
KST2 200908Z 18014KT 27/20 A2989 RMK A01 T02730204  RH  066%=      5-min Rain = 0
KST2 200909Z 19015KT 27/20 A2989 RMK A01 T02730204  RH  066%=      5-min Rain = 0
KST2 200910Z 19014KT 27/21 A2989 RMK A01 T02730205  RH  066%=      5-min Rain = 0
KST2 200911Z 19012KT 27/21 A2989 RMK A01 T02730205  RH  066%=      5-min Rain = 0
KST2 200912Z 18013KT 27/21 A2989 RMK A01 T02730205  RH  066%=      5-min Rain = 0
KST2 200913Z 18014KT 27/21 A2989 RMK A01 T02730205  RH  066%=      5-min Rain = 0
KST2 200914Z 18013KT 27/21 A2989 RMK A01 T02730205  RH  067%=      5-min Rain = 0
KST2 200915Z 18014KT 27/21 A2989 RMK A01 T02730205  RH  067%=      5-min Rain = 0
KST2 200916Z 19013KT 27/21 A2989 RMK A01 T02730206  RH  067%=      5-min Rain = 0
KST2 200917Z 19012KT 27/21 A2989 RMK A01 T02730205  RH  067%=      5-min Rain = 0
KST2 200918Z 18012KT 27/21 A2989 RMK A01 T02720206  RH  067%=      5-min Rain = 0
KST2 200919Z 18012KT 27/21 A2989 RMK A01 T02720205  RH  067%=      5-min Rain = 0
KST2 200920Z 18013KT 27/21 A2989 RMK A01 T02720206  RH  067%=      5-min Rain = 0
KST2 200921Z 18013KT 27/21 A2989 RMK A01 T02720206  RH  067%=      5-min Rain = 0
KST2 200922Z 18012KT 27/21 A2989 RMK A01 T02720206  RH  067%=      5-min Rain = 0
KST2 200923Z 18012KT 27/21 A2989 RMK A01 T02720206  RH  067%=      5-min Rain = 0
KST2 200924Z 19014KT 27/21 A2989 RMK A01 T02720206  RH  067%=      5-min Rain = 0
KST2 200925Z 18013KT 27/21 A2989 RMK A01 T02710206  RH  067%=      5-min Rain = 0
KST2 200926Z 19013KT 27/21 A2989 RMK A01 T02710206  RH  067%=      5-min Rain = 0
KST2 200927Z 18013KT 27/21 A2989 RMK A01 T02710206  RH  067%=      5-min Rain = 0
KST2 200928Z 18013KT 27/21 A2989 RMK A01 T02710206  RH  067%=      5-min Rain = 0
KST2 200929Z 19013KT 27/21 A2989 RMK A01 T02710207  RH  068%=      5-min Rain = 0
KST2 200930Z 19013KT 27/21 A2989 RMK A01 T02720207  RH  068%=      5-min Rain = 0
KST2 200931Z 19013KT 27/21 A2989 RMK A01 T02720207  RH  068%=      5-min Rain = 0
KST2 200932Z 19015KT 27/21 A2989 RMK A01 T02710207  RH  068%=      5-min Rain = 0
KST2 200933Z 19014KT 27/21 A2989 RMK A01 T02720207  RH  068%=      5-min Rain = 0
KST2 200934Z 19015KT 27/21 A2989 RMK A01 T02720207  RH  068%=      5-min Rain = 0
KST2 200935Z 19014KT 27/21 A2989 RMK A01 T02720208  RH  068%=      5-min Rain = 0
KST2 200936Z 18016KT 27/21 A2989 RMK A01 T02720208  RH  068%=      5-min Rain = 0
KST2 200937Z 19014KT 27/21 A2989 RMK A01 T02720207  RH  068%=      5-min Rain = 0
KST2 200938Z 19015KT 27/21 A2989 RMK A01 T02720208  RH  068%=      5-min Rain = 0
KST2 200939Z 19016KT 27/21 A2989 RMK A01 T02720208  RH  068%=      5-min Rain = 0
KST2 200940Z 18013KT 27/21 A2989 RMK A01 T02720208  RH  068%=      5-min Rain = 0
KST2 200941Z 19013KT 27/21 A2989 RMK A01 T02720208  RH  068%=      5-min Rain = 0
KST2 200942Z 19015KT 27/21 A2989 RMK A01 T02720209  RH  068%=      5-min Rain = 0
KST2 200943Z 18014G19KT 27/21 A2989 RMK A01 T02720209  RH  068%=      5-min Rain = 0
KST2 200944Z 19015KT 27/21 A2989 RMK A01 T02720209  RH  068%=      5-min Rain = 0
KST2 200945Z 19014KT 27/21 A2989 RMK A01 T02720209  RH  068%=      5-min Rain = 0
KST2 200946Z 18012KT 27/21 A2989 RMK A01 T02720209  RH  068%=      5-min Rain = 0
KST2 200947Z 19012KT 27/21 A2989 RMK A01 T02720209  RH  068%=      5-min Rain = 0
KST2 200948Z 19015KT 27/21 A2989 RMK A01 T02720209  RH  069%=      5-min Rain = 0
KST2 200949Z 18014KT 27/21 A299 RMK A01 T02720209  RH  069%=      5-min Rain = 0
KST2 200950Z 19013KT 27/21 A299 RMK A01 T02710209  RH  069%=      5-min Rain = 0
KST2 200951Z 18016KT 27/21 A299 RMK A01 T02720209  RH  069%=      5-min Rain = 0
KST2 200952Z 19014G19KT 27/21 A299 RMK A01 T02710209  RH  069%=      5-min Rain = 0
KST2 200953Z 19016KT 27/21 A299 RMK A01 T02720209  RH  069%=      5-min Rain = 0
KST2 200954Z 19015KT 27/21 A299 RMK A01 T02710209  RH  069%=      5-min Rain = 0
KST2 200955Z 19012KT 27/21 A299 RMK A01 T02720210  RH  069%=      5-min Rain = 0
KST2 200956Z 18016KT 27/21 A299 RMK A01 T02710210  RH  069%=      5-min Rain = 0
KST2 200957Z 19016KT 27/21 A299 RMK A01 T02710210  RH  069%=      5-min Rain = 0
KST2 200958Z 19016KT 27/21 A299 RMK A01 T02710210  RH  069%=      5-min Rain = 0
KST2 200959Z 19014G19KT 27/21 A299 RMK A01 T02710210  RH  069%=      5-min Rain = 0
KST2 201000Z 19015KT 27/21 A299 RMK A01 T02710210  RH  069%=      5-min Rain = 0
KST2 201001Z 19015KT 27/21 A299 RMK A01 T02710210  RH  069%=      5-min Rain = 0
KST2 201002Z 19014KT 27/21 A299 RMK A01 T02710210  RH  069%=      5-min Rain = 0
KST2 201003Z 19013KT 27/21 A299 RMK A01 T02710210  RH  069%=      5-min Rain = 0
KST2 201004Z 19015KT 27/21 A2989 RMK A01 T02710210  RH  070%=      5-min Rain = 0
KST2 201005Z 19014KT 27/21 A2989 RMK A01 T02710210  RH  070%=      5-min Rain = 0
KST2 201006Z 19014KT 27/21 A299 RMK A01 T02700210  RH  070%=      5-min Rain = 0
KST2 201007Z 19013KT 27/21 A299 RMK A01 T02700210  RH  070%=      5-min Rain = 0
KST2 201008Z 19017G23KT 27/21 A2989 RMK A01 T02700210  RH  070%=      5-min Rain = 0
KST2 201009Z 19014KT 27/21 A299 RMK A01 T02700210  RH  070%=      5-min Rain = 0
KST2 201010Z 19014KT 27/21 A299 RMK A01 T02700210  RH  070%=      5-min Rain = 0
KST2 201011Z 19013G20KT 27/21 A299 RMK A01 T02700210  RH  070%=      5-min Rain = 0
KST2 201012Z 19014G19KT 27/21 A299 RMK A01 T02700211  RH  070%=      5-min Rain = 0
KST2 201013Z 19014KT 27/21 A299 RMK A01 T02700211  RH  070%=      5-min Rain = 0
KST2 201014Z 19013KT 27/21 A299 RMK A01 T02690211  RH  070%=      5-min Rain = 0
KST2 201015Z 18011KT 27/21 A299 RMK A01 T02690211  RH  070%=      5-min Rain = 0
KST2 201016Z 18012KT 27/21 A299 RMK A01 T02690211  RH  070%=      5-min Rain = 0
KST2 201017Z 19013KT 27/21 A299 RMK A01 T02690211  RH  071%=      5-min Rain = 0
KST2 201018Z 19012KT 27/21 A299 RMK A01 T02680211  RH  071%=      5-min Rain = 0
KST2 201019Z 19015KT 27/21 A299 RMK A01 T02680211  RH  071%=      5-min Rain = 0
KST2 201020Z 19014KT 27/21 A299 RMK A01 T02680211  RH  071%=      5-min Rain = 0
KST2 201021Z 19013KT 27/21 A299 RMK A01 T02680211  RH  071%=      5-min Rain = 0
KST2 201022Z 18013KT 27/21 A299 RMK A01 T02680211  RH  071%=      5-min Rain = 0
KST2 201023Z 19013KT 27/21 A299 RMK A01 T02680211  RH  071%=      5-min Rain = 0
KST2 201024Z 19014KT 27/21 A299 RMK A01 T02680211  RH  071%=      5-min Rain = 0
KST2 201025Z 19012KT 27/21 A299 RMK A01 T02680211  RH  071%=      5-min Rain = 0
KST2 201026Z 18014KT 27/21 A299 RMK A01 T02680211  RH  071%=      5-min Rain = 0
KST2 201027Z 19014KT 27/21 A299 RMK A01 T02680211  RH  071%=      5-min Rain = 0
KST2 201028Z 19014KT 27/21 A299 RMK A01 T02680212  RH  071%=      5-min Rain = 0
KST2 201029Z 18013KT 27/21 A299 RMK A01 T02680211  RH  071%=      5-min Rain = 0
KST2 201030Z 19012KT 27/21 A299 RMK A01 T02680211  RH  071%=      5-min Rain = 0
KST2 201031Z 19013KT 27/21 A299 RMK A01 T02670211  RH  071%=      5-min Rain = 0
KST2 201032Z 19013KT 27/21 A299 RMK A01 T02670211  RH  071%=      5-min Rain = 0
KST2 201033Z 19012KT 27/21 A299 RMK A01 T02670211  RH  072%=      5-min Rain = 0
KST2 201034Z 19013KT 27/21 A299 RMK A01 T02670211  RH  072%=      5-min Rain = 0
KST2 201035Z 19014KT 27/21 A299 RMK A01 T02660211  RH  072%=      5-min Rain = 0
KST2 201036Z 19014KT 27/21 A299 RMK A01 T02660211  RH  072%=      5-min Rain = 0
KST2 201037Z 19014KT 27/21 A299 RMK A01 T02660211  RH  072%=      5-min Rain = 0
KST2 201038Z 19013KT 27/21 A299 RMK A01 T02660211  RH  072%=      5-min Rain = 0
KST2 201039Z 19013KT 27/21 A299 RMK A01 T02660211  RH  072%=      5-min Rain = 0
KST2 201040Z 19012KT 27/21 A299 RMK A01 T02660211  RH  072%=      5-min Rain = 0
KST2 201041Z 19013KT 27/21 A299 RMK A01 T02660212  RH  072%=      5-min Rain = 0
KST2 201042Z 19015KT 27/21 A299 RMK A01 T02660212  RH  072%=      5-min Rain = 0
KST2 201043Z 18013KT 27/21 A299 RMK A01 T02660212  RH  072%=      5-min Rain = 0
KST2 201044Z 18012KT 27/21 A299 RMK A01 T02660211  RH  072%=      5-min Rain = 0
KST2 201045Z 18013KT 27/21 A299 RMK A01 T02660212  RH  072%=      5-min Rain = 0
KST2 201046Z 19012KT 27/21 A299 RMK A01 T02650211  RH  072%=      5-min Rain = 0
KST2 201047Z 19013KT 27/21 A299 RMK A01 T02650212  RH  072%=      5-min Rain = 0
KST2 201048Z 18012KT 27/21 A299 RMK A01 T02650212  RH  072%=      5-min Rain = 0
KST2 201049Z 19013KT 27/21 A299 RMK A01 T02650211  RH  072%=      5-min Rain = 0
KST2 201050Z 19012KT 27/21 A299 RMK A01 T02650211  RH  073%=      5-min Rain = 0
KST2 201051Z 18014KT 27/21 A299 RMK A01 T02650211  RH  073%=      5-min Rain = 0
KST2 201052Z 19014KT 26/21 A299 RMK A01 T02640211  RH  073%=      5-min Rain = 0
KST2 201053Z 19015KT 27/21 A299 RMK A01 T02650212  RH  073%=      5-min Rain = 0
KST2 201054Z 19015KT 26/21 A299 RMK A01 T02640212  RH  073%=      5-min Rain = 0
KST2 201055Z 19015KT 27/21 A299 RMK A01 T02650212  RH  073%=      5-min Rain = 0
KST2 201056Z 19014KT 26/21 A299 RMK A01 T02640212  RH  073%=      5-min Rain = 0
KST2 201057Z 19013KT 27/21 A299 RMK A01 T02650212  RH  073%=      5-min Rain = 0
KST2 201058Z 19013KT 27/21 A299 RMK A01 T02650212  RH  073%=      5-min Rain = 0
KST2 201059Z 18013KT 26/21 A299 RMK A01 T02640212  RH  073%=      5-min Rain = 0
KST2 201100Z 19013KT 26/21 A299 RMK A01 T02640212  RH  073%=      5-min Rain = 0
KST2 201101Z 18013KT 26/21 A299 RMK A01 T02640212  RH  073%=      5-min Rain = 0
KST2 201102Z 18012KT 26/21 A2991 RMK A01 T02640212  RH  073%=      5-min Rain = 0
KST2 201103Z 18012KT 26/21 A2991 RMK A01 T02630212  RH  073%=      5-min Rain = 0
KST2 201104Z 18012KT 26/21 A2991 RMK A01 T02630212  RH  073%=      5-min Rain = 0
KST2 201105Z 18012KT 26/21 A2991 RMK A01 T02630211  RH  073%=      5-min Rain = 0
KST2 201106Z 18013KT 26/21 A2991 RMK A01 T02630211  RH  073%=      5-min Rain = 0
KST2 201107Z 18011KT 26/21 A2991 RMK A01 T02630211  RH  073%=      5-min Rain = 0
KST2 201108Z 18013KT 26/21 A2991 RMK A01 T02630211  RH  073%=      5-min Rain = 0
KST2 201109Z 18011KT 26/21 A2991 RMK A01 T02620211  RH  073%=      5-min Rain = 0
KST2 201110Z 18011KT 26/21 A2991 RMK A01 T02620211  RH  073%=      5-min Rain = 0
KST2 201111Z 18013KT 26/21 A2991 RMK A01 T02620211  RH  074%=      5-min Rain = 0
KST2 201112Z 18012KT 26/21 A2991 RMK A01 T02620211  RH  074%=      5-min Rain = 0
KST2 201113Z 18011KT 26/21 A2991 RMK A01 T02620211  RH  074%=      5-min Rain = 0
KST2 201114Z 19011KT 26/21 A2991 RMK A01 T02620211  RH  074%=      5-min Rain = 0
KST2 201115Z 18010KT 26/21 A2991 RMK A01 T02620211  RH  074%=      5-min Rain = 0
KST2 201116Z 18011KT 26/21 A2991 RMK A01 T02610211  RH  074%=      5-min Rain = 0
KST2 201117Z 18012KT 26/21 A2991 RMK A01 T02610211  RH  074%=      5-min Rain = 0
KST2 201118Z 18011KT 26/21 A2991 RMK A01 T02600211  RH  074%=      5-min Rain = 0
KST2 201119Z 18011KT 26/21 A2991 RMK A01 T02610211  RH  074%=      5-min Rain = 0
KST2 201120Z 18011KT 26/21 A2991 RMK A01 T02600211  RH  074%=      5-min Rain = 0
KST2 201121Z 18013KT 26/21 A2991 RMK A01 T02600211  RH  074%=      5-min Rain = 0
KST2 201122Z 18012KT 26/21 A2991 RMK A01 T02600211  RH  075%=      5-min Rain = 0
KST2 201123Z 18011KT 26/21 A2991 RMK A01 T02600212  RH  075%=      5-min Rain = 0
KST2 201124Z 18011KT 26/21 A2991 RMK A01 T02590211  RH  075%=      5-min Rain = 0
KST2 201125Z 18012KT 26/21 A2991 RMK A01 T02590211  RH  075%=      5-min Rain = 0
KST2 201126Z 18012KT 26/21 A2991 RMK A01 T02590212  RH  075%=      5-min Rain = 0
KST2 201127Z 18011KT 26/21 A2991 RMK A01 T02600212  RH  075%=      5-min Rain = 0
KST2 201128Z 18010KT 26/21 A2991 RMK A01 T02590212  RH  075%=      5-min Rain = 0
KST2 201129Z 18011KT 26/21 A2991 RMK A01 T02590211  RH  075%=      5-min Rain = 0
KST2 201130Z 18011KT 26/21 A2991 RMK A01 T02580211  RH  075%=      5-min Rain = 0
KST2 201131Z 19011KT 26/21 A2991 RMK A01 T02580211  RH  075%=      5-min Rain = 0
KST2 201132Z 19011KT 26/21 A2991 RMK A01 T02580212  RH  075%=      5-min Rain = 0
KST2 201133Z 19011KT 26/21 A2991 RMK A01 T02580212  RH  076%=      5-min Rain = 0
KST2 201134Z 18012KT 26/21 A2991 RMK A01 T02580212  RH  076%=      5-min Rain = 0
KST2 201135Z 19011KT 26/21 A2991 RMK A01 T02580212  RH  076%=      5-min Rain = 0
KST2 201136Z 18010KT 26/21 A2991 RMK A01 T02580212  RH  076%=      5-min Rain = 0
KST2 201137Z 18011KT 26/21 A2991 RMK A01 T02570211  RH  076%=      5-min Rain = 0
KST2 201138Z 18011KT 26/21 A2991 RMK A01 T02570212  RH  076%=      5-min Rain = 0
KST2 201139Z 18011KT 26/21 A2992 RMK A01 T02570212  RH  076%=      5-min Rain = 0
KST2 201140Z 18011KT 26/21 A2992 RMK A01 T02570212  RH  076%=      5-min Rain = 0
KST2 201141Z 18012KT 26/21 A2992 RMK A01 T02570211  RH  076%=      5-min Rain = 0
KST2 201142Z 18011KT 26/21 A2992 RMK A01 T02570212  RH  076%=      5-min Rain = 0
KST2 201143Z 18011KT 26/21 A2992 RMK A01 T02570212  RH  076%=      5-min Rain = 0
KST2 201144Z 18011KT 26/21 A2992 RMK A01 T02560211  RH  076%=      5-min Rain = 0
KST2 201145Z 18009KT 26/21 A2992 RMK A01 T02560212  RH  076%=      5-min Rain = 0
KST2 201146Z 18010KT 26/21 A2992 RMK A01 T02560212  RH  076%=      5-min Rain = 0
KST2 201147Z 18012KT 26/21 A2992 RMK A01 T02560212  RH  076%=      5-min Rain = 0
KST2 201148Z 18012KT 26/21 A2992 RMK A01 T02560212  RH  076%=      5-min Rain = 0
KST2 201149Z 18011KT 26/21 A2992 RMK A01 T02560212  RH  076%=      5-min Rain = 0
KST2 201150Z 18011KT 26/21 A2992 RMK A01 T02560212  RH  076%=      5-min Rain = 0
KST2 201151Z 18010KT 26/21 A2992 RMK A01 T02560211  RH  076%=      5-min Rain = 0
KST2 201152Z 18011KT 26/21 A2992 RMK A01 T02560212  RH  076%=      5-min Rain = 0
KST2 201153Z 18011KT 26/21 A2992 RMK A01 T02560211  RH  076%=      5-min Rain = 0
KST2 201154Z 18011KT 26/21 A2992 RMK A01 T02560212  RH  076%=      5-min Rain = 0
KST2 201155Z 18011KT 26/21 A2992 RMK A01 T02560212  RH  077%=      5-min Rain = 0
KST2 201156Z 18011KT 26/21 A2992 RMK A01 T02560212  RH  077%=      5-min Rain = 0
KST2 201157Z 18010KT 26/21 A2992 RMK A01 T02560212  RH  077%=      5-min Rain = 0
KST2 201158Z 18012KT 26/21 A2992 RMK A01 T02560212  RH  077%=      5-min Rain = 0
KST2 201159Z 18011KT 26/21 A2992 RMK A01 T02560212  RH  077%=      5-min Rain = 0
KST2 201200Z 17012KT 26/21 A2992 RMK A01 T02560212  RH  077%=      5-min Rain = 0
KST2 201201Z 18012KT 26/21 A2992 RMK A01 T02560212  RH  077%=      5-min Rain = 0
KST2 201202Z 18012KT 26/21 A2992 RMK A01 T02560212  RH  077%=      5-min Rain = 0
KST2 201203Z 18011KT 26/21 A2992 RMK A01 T02560212  RH  077%=      5-min Rain = 0
KST2 201204Z 18011KT 26/21 A2992 RMK A01 T02560212  RH  077%=      5-min Rain = 0
KST2 201205Z 18013KT 26/21 A2992 RMK A01 T02560212  RH  077%=      5-min Rain = 0
KST2 201206Z 18012KT 26/21 A2992 RMK A01 T02560212  RH  077%=      5-min Rain = 0
KST2 201207Z 18012KT 26/21 A2992 RMK A01 T02560212  RH  077%=      5-min Rain = 0
KST2 201208Z 18013KT 26/21 A2992 RMK A01 T02560212  RH  077%=      5-min Rain = 0
KST2 201209Z 17011KT 26/21 A2992 RMK A01 T02560212  RH  077%=      5-min Rain = 0
KST2 201210Z 18012KT 26/21 A2992 RMK A01 T02560212  RH  077%=      5-min Rain = 0
KST2 201211Z 17011KT 26/21 A2992 RMK A01 T02560212  RH  077%=      5-min Rain = 0
KST2 201212Z 17012KT 26/21 A2992 RMK A01 T02560212  RH  077%=      5-min Rain = 0
KST2 201213Z 17011KT 26/21 A2992 RMK A01 T02560212  RH  077%=      5-min Rain = 0
KST2 201214Z 17012KT 26/21 A2992 RMK A01 T02560212  RH  077%=      5-min Rain = 0
KST2 201215Z 17012KT 26/21 A2992 RMK A01 T02560212  RH  077%=      5-min Rain = 0
KST2 201216Z 17011KT 26/21 A2992 RMK A01 T02560212  RH  077%=      5-min Rain = 0
KST2 201217Z 17010KT 26/21 A2992 RMK A01 T02560212  RH  077%=      5-min Rain = 0
KST2 201218Z 17013KT 26/21 A2992 RMK A01 T02560212  RH  077%=      5-min Rain = 0
KST2 201219Z 17011KT 26/21 A2992 RMK A01 T02560212  RH  077%=      5-min Rain = 0
KST2 201220Z 17012KT 26/21 A2992 RMK A01 T02560212  RH  077%=      5-min Rain = 0
KST2 201221Z 17013KT 26/21 A2992 RMK A01 T02560212  RH  077%=      5-min Rain = 0
KST2 201222Z 17011KT 26/21 A2992 RMK A01 T02560212  RH  077%=      5-min Rain = 0
KST2 201223Z 17012KT 26/21 A2992 RMK A01 T02560212  RH  077%=      5-min Rain = 0
KST2 201224Z 17013KT 26/21 A2992 RMK A01 T02560212  RH  077%=      5-min Rain = 0
KST2 201225Z 17012KT 26/21 A2992 RMK A01 T02560212  RH  077%=      5-min Rain = 0
KST2 201226Z 17012KT 26/21 A2992 RMK A01 T02560212  RH  077%=      5-min Rain = 0
KST2 201227Z 17012KT 26/21 A2992 RMK A01 T02560212  RH  077%=      5-min Rain = 0
KST2 201228Z 17012KT 26/21 A2992 RMK A01 T02570213  RH  077%=      5-min Rain = 0
KST2 201229Z 17013KT 26/21 A2992 RMK A01 T02570213  RH  076%=      5-min Rain = 0
KST2 201230Z 17014KT 26/21 A2992 RMK A01 T02570212  RH  076%=      5-min Rain = 0
KST2 201231Z 17013KT 26/21 A2992 RMK A01 T02570213  RH  076%=      5-min Rain = 0
KST2 201232Z 17013KT 26/21 A2992 RMK A01 T02570212  RH  076%=      5-min Rain = 0
KST2 201233Z 17012KT 26/21 A2992 RMK A01 T02570213  RH  076%=      5-min Rain = 0
KST2 201234Z 17010KT 26/21 A2992 RMK A01 T02570213  RH  076%=      5-min Rain = 0
KST2 201235Z 17011KT 26/21 A2992 RMK A01 T02570213  RH  076%=      5-min Rain = 0
KST2 201236Z 17013KT 26/21 A2992 RMK A01 T02570213  RH  076%=      5-min Rain = 0
KST2 201237Z 17012KT 26/21 A2992 RMK A01 T02580213  RH  076%=      5-min Rain = 0
KST2 201238Z 17012KT 26/21 A2992 RMK A01 T02580213  RH  076%=      5-min Rain = 0
KST2 201239Z 17011KT 26/21 A2992 RMK A01 T02580213  RH  076%=      5-min Rain = 0
KST2 201240Z 17013KT 26/21 A2992 RMK A01 T02580213  RH  076%=      5-min Rain = 0
KST2 201241Z 17013KT 26/21 A2992 RMK A01 T02590213  RH  076%=      5-min Rain = 0
KST2 201242Z 17013KT 26/21 A2992 RMK A01 T02580213  RH  076%=      5-min Rain = 0
KST2 201243Z 17012KT 26/21 A2992 RMK A01 T02580213  RH  076%=      5-min Rain = 0
KST2 201244Z 17013KT 26/21 A2993 RMK A01 T02590213  RH  076%=      5-min Rain = 0
KST2 201245Z 18012KT 26/21 A2993 RMK A01 T02590213  RH  076%=      5-min Rain = 0
KST2 201246Z 17010KT 26/21 A2993 RMK A01 T02590213  RH  076%=      5-min Rain = 0
KST2 201247Z 17012KT 26/21 A2993 RMK A01 T02600213  RH  076%=      5-min Rain = 0
KST2 201248Z 17013KT 26/21 A2993 RMK A01 T02600213  RH  075%=      5-min Rain = 0
KST2 201249Z 17013KT 26/21 A2993 RMK A01 T02600213  RH  075%=      5-min Rain = 0
KST2 201250Z 17013KT 26/21 A2993 RMK A01 T02600213  RH  075%=      5-min Rain = 0
KST2 201251Z 18014KT 26/21 A2992 RMK A01 T02600213  RH  075%=      5-min Rain = 0
KST2 201252Z 17013KT 26/21 A2992 RMK A01 T02600213  RH  075%=      5-min Rain = 0
KST2 201253Z 17012KT 26/21 A2993 RMK A01 T02610214  RH  075%=      5-min Rain = 0
KST2 201254Z 17013KT 26/21 A2992 RMK A01 T02610213  RH  075%=      5-min Rain = 0
KST2 201255Z 17013KT 26/21 A2993 RMK A01 T02610213  RH  075%=      5-min Rain = 0
KST2 201256Z 18013KT 26/21 A2993 RMK A01 T02610213  RH  075%=      5-min Rain = 0
KST2 201257Z 17013KT 26/21 A2993 RMK A01 T02620213  RH  074%=      5-min Rain = 0
KST2 201258Z 17012KT 26/21 A2993 RMK A01 T02620213  RH  075%=      5-min Rain = 0
KST2 201259Z 17013KT 26/21 A2993 RMK A01 T02620213  RH  075%=      5-min Rain = 0
KST2 201300Z 18015KT 26/21 A2993 RMK A01 T02620213  RH  074%=      5-min Rain = 0
KST2 201301Z 18012KT 26/21 A2993 RMK A01 T02620213  RH  074%=      5-min Rain = 0
KST2 201302Z 18012KT 26/21 A2993 RMK A01 T02620213  RH  074%=      5-min Rain = 0
KST2 201303Z 17014KT 26/21 A2993 RMK A01 T02630213  RH  074%=      5-min Rain = 0
KST2 201304Z 18014KT 26/21 A2993 RMK A01 T02630213  RH  074%=      5-min Rain = 0
KST2 201305Z 18012KT 26/21 A2993 RMK A01 T02630213  RH  074%=      5-min Rain = 0
KST2 201306Z 17013KT 26/21 A2993 RMK A01 T02630213  RH  074%=      5-min Rain = 0
KST2 201307Z 17016KT 26/21 A2993 RMK A01 T02640213  RH  073%=      5-min Rain = 0
KST2 201308Z 18015KT 26/21 A2993 RMK A01 T02640212  RH  073%=      5-min Rain = 0
KST2 201309Z 18013KT 26/21 A2993 RMK A01 T02640212  RH  073%=      5-min Rain = 0
KST2 201310Z 18016KT 26/21 A2993 RMK A01 T02640212  RH  073%=      5-min Rain = 0
KST2 201311Z 18014KT 26/21 A2993 RMK A01 T02640212  RH  073%=      5-min Rain = 0
KST2 201312Z 18012KT 26/21 A2993 RMK A01 T02640212  RH  073%=      5-min Rain = 0
KST2 201313Z 18011KT 26/21 A2993 RMK A01 T02640212  RH  073%=      5-min Rain = 0
KST2 201314Z 18015KT 27/21 A2993 RMK A01 T02650212  RH  073%=      5-min Rain = 0
KST2 201315Z 18015KT 27/21 A2993 RMK A01 T02650211  RH  072%=      5-min Rain = 0
KST2 201316Z 18013KT 27/21 A2993 RMK A01 T02660211  RH  072%=      5-min Rain = 0
KST2 201317Z 18013KT 27/21 A2993 RMK A01 T02650211  RH  072%=      5-min Rain = 0
KST2 201318Z 18015KT 27/21 A2993 RMK A01 T02650210  RH  072%=      5-min Rain = 0
KST2 201319Z 19014KT 27/21 A2993 RMK A01 T02650210  RH  072%=      5-min Rain = 0
KST2 201320Z 18015KT 27/21 A2993 RMK A01 T02660210  RH  071%=      5-min Rain = 0
KST2 201321Z 18015KT 27/21 A2993 RMK A01 T02660209  RH  071%=      5-min Rain = 0
KST2 201322Z 18014KT 27/21 A2993 RMK A01 T02670209  RH  071%=      5-min Rain = 0
KST2 201323Z 18015KT 27/21 A2993 RMK A01 T02670209  RH  070%=      5-min Rain = 0
KST2 201324Z 18016KT 27/21 A2993 RMK A01 T02670208  RH  070%=      5-min Rain = 0
KST2 201325Z 19015KT 27/21 A2993 RMK A01 T02670208  RH  070%=      5-min Rain = 0
KST2 201326Z 18017KT 27/21 A2993 RMK A01 T02670208  RH  070%=      5-min Rain = 0
KST2 201327Z 18016KT 27/21 A2993 RMK A01 T02680207  RH  069%=      5-min Rain = 0
KST2 201328Z 19015KT 27/21 A2993 RMK A01 T02680208  RH  069%=      5-min Rain = 0
KST2 201329Z 18016KT 27/21 A2993 RMK A01 T02680207  RH  069%=      5-min Rain = 0
KST2 201330Z 18014KT 27/21 A2993 RMK A01 T02680207  RH  069%=      5-min Rain = 0
KST2 201331Z 18017KT 27/21 A2993 RMK A01 T02680207  RH  069%=      5-min Rain = 0
KST2 201332Z 18016KT 27/21 A2993 RMK A01 T02680206  RH  069%=      5-min Rain = 0
KST2 201333Z 18015KT 27/21 A2993 RMK A01 T02680207  RH  069%=      5-min Rain = 0
KST2 201334Z 18015KT 27/21 A2993 RMK A01 T02690207  RH  069%=      5-min Rain = 0
KST2 201335Z 18013KT 27/21 A2993 RMK A01 T02690207  RH  069%=      5-min Rain = 0
KST2 201336Z 18015KT 27/21 A2993 RMK A01 T02700207  RH  069%=      5-min Rain = 0
KST2 201337Z 18014KT 27/21 A2993 RMK A01 T02700207  RH  068%=      5-min Rain = 0
KST2 201338Z 18018KT 27/21 A2993 RMK A01 T02710207  RH  068%=      5-min Rain = 0
KST2 201339Z 18017KT 27/21 A2993 RMK A01 T02710206  RH  067%=      5-min Rain = 0
KST2 201340Z 18016KT 27/21 A2993 RMK A01 T02710206  RH  068%=      5-min Rain = 0
KST2 201341Z 19015KT 27/21 A2994 RMK A01 T02710206  RH  068%=      5-min Rain = 0
KST2 201342Z 19016KT 27/21 A2994 RMK A01 T02710206  RH  067%=      5-min Rain = 0
KST2 201343Z 19016KT 27/21 A2994 RMK A01 T02710206  RH  067%=      5-min Rain = 0
KST2 201344Z 18017KT 27/20 A2993 RMK A01 T02710204  RH  067%=      5-min Rain = 0
KST2 201345Z 18017KT 27/20 A2993 RMK A01 T02710204  RH  066%=      5-min Rain = 0
KST2 201346Z 19017KT 27/20 A2993 RMK A01 T02720204  RH  066%=      5-min Rain = 0
KST2 201347Z 19014KT 27/20 A2994 RMK A01 T02720204  RH  066%=      5-min Rain = 0
KST2 201348Z 19016KT 27/20 A2994 RMK A01 T02720204  RH  066%=      5-min Rain = 0
KST2 201349Z 20018KT 27/20 A2993 RMK A01 T02720203  RH  066%=      5-min Rain = 0
KST2 201350Z 18015KT 27/20 A2993 RMK A01 T02730203  RH  066%=      5-min Rain = 0
KST2 201351Z 18014KT 27/20 A2994 RMK A01 T02730203  RH  066%=      5-min Rain = 0
KST2 201352Z 19016KT 27/20 A2994 RMK A01 T02740203  RH  065%=      5-min Rain = 0
KST2 201353Z 18013KT 28/20 A2994 RMK A01 T02750204  RH  065%=      5-min Rain = 0
KST2 201354Z 19014G19KT 28/20 A2994 RMK A01 T02760204  RH  065%=      5-min Rain = 0
KST2 201355Z 18017KT 28/20 A2993 RMK A01 T02760203  RH  064%=      5-min Rain = 0
KST2 201356Z 18018KT 28/20 A2993 RMK A01 T02760201  RH  064%=      5-min Rain = 0
KST2 201357Z 18017KT 28/20 A2993 RMK A01 T02760202  RH  064%=      5-min Rain = 0
KST2 201358Z 19015KT 28/20 A2994 RMK A01 T02750202  RH  064%=      5-min Rain = 0
KST2 201359Z 19015G20KT 28/20 A2994 RMK A01 T02750202  RH  064%=      5-min Rain = 0
KST2 201400Z 19015KT 28/20 A2994 RMK A01 T02750202  RH  064%=      5-min Rain = 0
KST2 201401Z 19015KT 28/20 A2994 RMK A01 T02760201  RH  064%=      5-min Rain = 0
KST2 201402Z 18015KT 28/20 A2994 RMK A01 T02760202  RH  064%=      5-min Rain = 0
KST2 201403Z 18013KT 28/20 A2994 RMK A01 T02770202  RH  064%=      5-min Rain = 0
KST2 201404Z 19016KT 28/20 A2994 RMK A01 T02780203  RH  064%=      5-min Rain = 0
KST2 201405Z 19016KT 28/20 A2994 RMK A01 T02790201  RH  063%=      5-min Rain = 0
KST2 201406Z 19017KT 28/20 A2994 RMK A01 T02790202  RH  063%=      5-min Rain = 0
KST2 201407Z 19017KT 28/20 A2994 RMK A01 T02790201  RH  063%=      5-min Rain = 0
KST2 201408Z 19015KT 28/20 A2994 RMK A01 T02790201  RH  063%=      5-min Rain = 0
KST2 201409Z 20018KT 28/20 A2994 RMK A01 T02790201  RH  062%=      5-min Rain = 0
KST2 201410Z 18017KT 28/20 A2994 RMK A01 T02790201  RH  062%=      5-min Rain = 0
KST2 201411Z 20017KT 28/20 A2994 RMK A01 T02790200  RH  062%=      5-min Rain = 0
KST2 201412Z 18013G18KT 28/20 A2994 RMK A01 T02800201  RH  062%=      5-min Rain = 0
KST2 201413Z 18013KT 28/20 A2994 RMK A01 T02810202  RH  062%=      5-min Rain = 0
KST2 201414Z 19014G19KT 28/20 A2994 RMK A01 T02830203  RH  062%=      5-min Rain = 0
KST2 201415Z 19017KT 28/20 A2994 RMK A01 T02840202  RH  061%=      5-min Rain = 0
KST2 201416Z 18017KT 28/20 A2994 RMK A01 T02830201  RH  061%=      5-min Rain = 0
KST2 201417Z 18017KT 28/20 A2994 RMK A01 T02830200  RH  061%=      5-min Rain = 0
KST2 201418Z 19015KT 28/20 A2994 RMK A01 T02820200  RH  061%=      5-min Rain = 0
KST2 201419Z 19016KT 28/20 A2994 RMK A01 T02830201  RH  061%=      5-min Rain = 0
KST2 201420Z 19016KT 28/20 A2994 RMK A01 T02830200  RH  061%=      5-min Rain = 0
KST2 201421Z 19016KT 28/20 A2994 RMK A01 T02830200  RH  061%=      5-min Rain = 0
KST2 201422Z 19018KT 28/20 A2994 RMK A01 T02830200  RH  061%=      5-min Rain = 0
KST2 201423Z 18016KT 28/20 A2994 RMK A01 T02830200  RH  061%=      5-min Rain = 0
KST2 201424Z 18018KT 28/20 A2994 RMK A01 T02830200  RH  061%=      5-min Rain = 0
KST2 201425Z 18017KT 28/20 A2994 RMK A01 T02830199  RH  061%=      5-min Rain = 0
KST2 201426Z 19015KT 28/20 A2994 RMK A01 T02840200  RH  061%=      5-min Rain = 0
KST2 201427Z 19015KT 28/20 A2994 RMK A01 T02840200  RH  060%=      5-min Rain = 0
KST2 201428Z 19013G18KT 29/20 A2994 RMK A01 T02850201  RH  060%=      5-min Rain = 0
KST2 201429Z 18013KT 29/20 A2994 RMK A01 T02870202  RH  060%=      5-min Rain = 0
KST2 201430Z 19016G21KT 29/20 A2994 RMK A01 T02890202  RH  060%=      5-min Rain = 0
KST2 201431Z 18016KT 29/20 A2994 RMK A01 T02900201  RH  059%=      5-min Rain = 0
KST2 201432Z 19014KT 29/20 A2994 RMK A01 T02880201  RH  059%=      5-min Rain = 0
KST2 201433Z 19016KT 29/20 A2994 RMK A01 T02870201  RH  060%=      5-min Rain = 0
KST2 201434Z 18017KT 29/20 A2994 RMK A01 T02880201  RH  059%=      5-min Rain = 0
KST2 201435Z 18016KT 29/20 A2994 RMK A01 T02880200  RH  059%=      5-min Rain = 0
KST2 201436Z 18018KT 29/20 A2994 RMK A01 T02880200  RH  059%=      5-min Rain = 0
KST2 201437Z 18016KT 29/20 A2994 RMK A01 T02880200  RH  059%=      5-min Rain = 0
KST2 201438Z 18017KT 29/20 A2994 RMK A01 T02890201  RH  059%=      5-min Rain = 0
KST2 201439Z 18016KT 29/20 A2994 RMK A01 T02890200  RH  059%=      5-min Rain = 0
KST2 201440Z 18016KT 29/20 A2994 RMK A01 T02890200  RH  059%=      5-min Rain = 0
KST2 201441Z 18019KT 29/20 A2993 RMK A01 T02890200  RH  059%=      5-min Rain = 0
KST2 201442Z 18016G21KT 29/20 A2993 RMK A01 T02900200  RH  058%=      5-min Rain = 0
KST2 201443Z 18014KT 29/20 A2994 RMK A01 T02900201  RH  059%=      5-min Rain = 0
KST2 201444Z 18016KT 29/20 A2993 RMK A01 T02900201  RH  059%=      5-min Rain = 0
KST2 201445Z 18016KT 29/20 A2993 RMK A01 T02910201  RH  058%=      5-min Rain = 0
KST2 201446Z 19015KT 29/20 A2994 RMK A01 T02920202  RH  058%=      5-min Rain = 0
KST2 201447Z 19013KT 29/20 A2994 RMK A01 T02920202  RH  058%=      5-min Rain = 0
KST2 201448Z 19015KT 29/20 A2994 RMK A01 T02930203  RH  058%=      5-min Rain = 0
KST2 201449Z 20015KT 29/20 A2994 RMK A01 T02940202  RH  058%=      5-min Rain = 0
KST2 201450Z 19015KT 29/20 A2994 RMK A01 T02940202  RH  058%=      5-min Rain = 0
KST2 201451Z 18016KT 29/20 A2994 RMK A01 T02930202  RH  058%=      5-min Rain = 0
KST2 201452Z 19016KT 29/20 A2994 RMK A01 T02940202  RH  058%=      5-min Rain = 0
KST2 201453Z 19016KT 30/20 A2994 RMK A01 T02950202  RH  057%=      5-min Rain = 0
KST2 201454Z 19016KT 30/20 A2994 RMK A01 T02950202  RH  057%=      5-min Rain = 0
KST2 201455Z 18018KT 30/20 A2993 RMK A01 T02950202  RH  057%=      5-min Rain = 0
KST2 201456Z 17018KT 30/20 A2993 RMK A01 T02950201  RH  057%=      5-min Rain = 0
KST2 201457Z 18015KT 29/20 A2994 RMK A01 T02940201  RH  057%=      5-min Rain = 0
KST2 201458Z 19016KT 30/20 A2994 RMK A01 T02950202  RH  057%=      5-min Rain = 0
KST2 201459Z 19016KT 30/20 A2993 RMK A01 T02960201  RH  057%=      5-min Rain = 0
KST2 201500Z 19014KT 30/20 A2994 RMK A01 T02950202  RH  057%=      5-min Rain = 0
KST2 201501Z 18013G18KT 30/20 A2994 RMK A01 T02950203  RH  058%=      5-min Rain = 0
KST2 201502Z 17018KT 30/20 A2993 RMK A01 T02960202  RH  057%=      5-min Rain = 0
KST2 201503Z 18017KT 30/20 A2993 RMK A01 T02960201  RH  057%=      5-min Rain = 0
KST2 201504Z 18016KT 30/20 A2994 RMK A01 T02960201  RH  057%=      5-min Rain = 0
KST2 201505Z 18016KT 30/20 A2994 RMK A01 T02980202  RH  056%=      5-min Rain = 0
KST2 201506Z 18017KT 30/20 A2993 RMK A01 T02990201  RH  056%=      5-min Rain = 0
KST2 201507Z 18015KT 30/20 A2994 RMK A01 T02980202  RH  056%=      5-min Rain = 0
KST2 201508Z 18015KT 30/20 A2994 RMK A01 T02980202  RH  057%=      5-min Rain = 0
KST2 201509Z 18015KT 30/20 A2993 RMK A01 T02980202  RH  056%=      5-min Rain = 0
KST2 201510Z 19014KT 30/20 A2993 RMK A01 T02980202  RH  057%=      5-min Rain = 0
KST2 201511Z 18015KT 30/20 A2993 RMK A01 T02980203  RH  057%=      5-min Rain = 0
KST2 201512Z 19017KT 30/20 A2993 RMK A01 T03000202  RH  056%=      5-min Rain = 0
KST2 201513Z 18014KT 30/20 A2993 RMK A01 T02990202  RH  056%=      5-min Rain = 0
KST2 201514Z 19012KT 30/20 A2993 RMK A01 T02990203  RH  056%=      5-min Rain = 0
KST2 201515Z 17015KT 30/20 A2993 RMK A01 T03010203  RH  056%=      5-min Rain = 0
KST2 201516Z 17014KT 30/20 A2993 RMK A01 T03010202  RH  055%=      5-min Rain = 0
KST2 201517Z 17013KT 30/20 A2993 RMK A01 T03010202  RH  055%=      5-min Rain = 0
KST2 201518Z 17015KT 30/20 A2993 RMK A01 T03020203  RH  056%=      5-min Rain = 0
KST2 201519Z 18016KT 30/20 A2993 RMK A01 T03040202  RH  054%=      5-min Rain = 0
KST2 201520Z 17016KT 30/20 A2993 RMK A01 T03040202  RH  054%=      5-min Rain = 0
KST2 201521Z 18016KT 30/20 A2993 RMK A01 T03040202  RH  055%=      5-min Rain = 0
KST2 201522Z 18014KT 31/20 A2993 RMK A01 T03050202  RH  054%=      5-min Rain = 0
KST2 201523Z 18012KT 31/20 A2993 RMK A01 T03050203  RH  055%=      5-min Rain = 0
KST2 201524Z 18015KT 31/20 A2993 RMK A01 T03070204  RH  054%=      5-min Rain = 0
KST2 201525Z 18013KT 31/20 A2993 RMK A01 T03080202  RH  053%=      5-min Rain = 0
KST2 201526Z 18015KT 31/20 A2993 RMK A01 T03060203  RH  054%=      5-min Rain = 0
KST2 201527Z 18014KT 31/20 A2993 RMK A01 T03060203  RH  054%=      5-min Rain = 0
KST2 201528Z 19014KT 30/20 A2993 RMK A01 T03040202  RH  054%=      5-min Rain = 0
KST2 201529Z 20015KT 31/20 A2993 RMK A01 T03050202  RH  054%=      5-min Rain = 0
KST2 201530Z 19014KT 31/20 A2993 RMK A01 T03060202  RH  054%=      5-min Rain = 0
KST2 201531Z 18016KT 31/20 A2993 RMK A01 T03060203  RH  054%=      5-min Rain = 0
KST2 201532Z 18016KT 31/20 A2993 RMK A01 T03070202  RH  054%=      5-min Rain = 0
KST2 201533Z 18017KT 31/20 A2993 RMK A01 T03070201  RH  053%=      5-min Rain = 0
KST2 201534Z 19016KT 31/20 A2993 RMK A01 T03070201  RH  053%=      5-min Rain = 0
KST2 201535Z 19012KT 31/20 A2993 RMK A01 T03070203  RH  054%=      5-min Rain = 0
KST2 201536Z 18012KT 31/20 A2993 RMK A01 T03080204  RH  054%=      5-min Rain = 0
KST2 201537Z 19013KT 31/20 A2993 RMK A01 T03100203  RH  053%=      5-min Rain = 0
KST2 201538Z 19015KT 31/21 A2993 RMK A01 T03110205  RH  053%=      5-min Rain = 0
KST2 201539Z 20016KT 31/20 A2993 RMK A01 T03110203  RH  052%=      5-min Rain = 0
KST2 201540Z 18013KT 31/20 A2993 RMK A01 T03100202  RH  053%=      5-min Rain = 0
KST2 201541Z 17016KT 31/20 A2993 RMK A01 T03090202  RH  053%=      5-min Rain = 0
KST2 201542Z 19016KT 31/20 A2993 RMK A01 T03110202  RH  052%=      5-min Rain = 0
KST2 201543Z 19017KT 31/20 A2993 RMK A01 T03120202  RH  052%=      5-min Rain = 0
KST2 201544Z 18017KT 31/20 A2993 RMK A01 T03120201  RH  052%=      5-min Rain = 0
KST2 201545Z 18015KT 31/20 A2993 RMK A01 T03120201  RH  052%=      5-min Rain = 0
KST2 201546Z 19015KT 31/20 A2993 RMK A01 T03120201  RH  052%=      5-min Rain = 0
KST2 201547Z 19015KT 31/20 A2993 RMK A01 T03120202  RH  052%=      5-min Rain = 0
KST2 201548Z 19014KT 31/20 A2993 RMK A01 T03130201  RH  052%=      5-min Rain = 0
KST2 201549Z 20015KT 31/20 A2993 RMK A01 T03130202  RH  052%=      5-min Rain = 0
KST2 201550Z 19015KT 31/20 A2993 RMK A01 T03140202  RH  051%=      5-min Rain = 0
KST2 201551Z 18014G19KT 32/20 A2993 RMK A01 T03150203  RH  051%=      5-min Rain = 0
KST2 201552Z 17015KT 32/20 A2993 RMK A01 T03150201  RH  051%=      5-min Rain = 0
KST2 201553Z 18016KT 32/20 A2993 RMK A01 T03150200  RH  051%=      5-min Rain = 0
KST2 201554Z 18013KT 32/20 A2993 RMK A01 T03150202  RH  051%=      5-min Rain = 0
KST2 201555Z 18012KT 32/20 A2993 RMK A01 T03160202  RH  051%=      5-min Rain = 0
KST2 201556Z 17014KT 32/20 A2993 RMK A01 T03180203  RH  051%=      5-min Rain = 0
KST2 201557Z 17014KT 32/20 A2993 RMK A01 T03190202  RH  050%=      5-min Rain = 0
KST2 201558Z 19013KT 32/20 A2993 RMK A01 T03190202  RH  050%=      5-min Rain = 0
KST2 201559Z 18013KT 32/20 A2993 RMK A01 T03190202  RH  050%=      5-min Rain = 0
KST2 201600Z 19014G20KT 32/20 A2993 RMK A01 T03210203  RH  050%=      5-min Rain = 0
KST2 201601Z 18018KT 32/20 A2993 RMK A01 T03220199  RH  048%=      5-min Rain = 0
KST2 201602Z 20016G21KT 32/20 A2993 RMK A01 T03220198  RH  048%=      5-min Rain = 0
KST2 201603Z 19016KT 32/20 A2993 RMK A01 T03210198  RH  048%=      5-min Rain = 0
KST2 201604Z 19015KT 32/20 A2993 RMK A01 T03210200  RH  049%=      5-min Rain = 0
KST2 201605Z 19017KT 32/20 A2992 RMK A01 T03210201  RH  049%=      5-min Rain = 0
KST2 201606Z 17016KT 32/20 A2993 RMK A01 T03210201  RH  049%=      5-min Rain = 0
KST2 201607Z 18014KT 32/20 A2993 RMK A01 T03210202  RH  049%=      5-min Rain = 0
KST2 201608Z 19012KT 32/20 A2993 RMK A01 T03200202  RH  050%=      5-min Rain = 0
KST2 201609Z 20014KT 32/20 A2993 RMK A01 T03190203  RH  050%=      5-min Rain = 0
KST2 201610Z 18012KT 32/20 A2993 RMK A01 T03190202  RH  050%=      5-min Rain = 0
KST2 201611Z 17015KT 32/20 A2992 RMK A01 T03200200  RH  049%=      5-min Rain = 0
KST2 201612Z 18014KT 32/20 A2992 RMK A01 T03200199  RH  049%=      5-min Rain = 0
KST2 201613Z 18016KT 32/20 A2993 RMK A01 T03210199  RH  048%=      5-min Rain = 0
KST2 201614Z 18016KT 32/20 A2992 RMK A01 T03210199  RH  048%=      5-min Rain = 0
KST2 201615Z 18015KT 32/20 A2992 RMK A01 T03200198  RH  048%=      5-min Rain = 0
KST2 201616Z 18014KT 32/20 A2992 RMK A01 T03210198  RH  048%=      5-min Rain = 0
KST2 201617Z 19014KT 32/20 A2992 RMK A01 T03230200  RH  048%=      5-min Rain = 0
KST2 201618Z 19013KT 33/20 A2992 RMK A01 T03260199  RH  047%=      5-min Rain = 0
KST2 201619Z 18013KT 33/20 A2992 RMK A01 T03270198  RH  047%=      5-min Rain = 0
KST2 201620Z 18013KT 33/20 A2992 RMK A01 T03270198  RH  047%=      5-min Rain = 0
KST2 201621Z 18012KT 33/20 A2992 RMK A01 T03280199  RH  047%=      5-min Rain = 0
KST2 201622Z 17013G18KT 33/20 A2992 RMK A01 T03310201  RH  046%=      5-min Rain = 0
KST2 201623Z 17015KT 33/20 A2992 RMK A01 T03320199  RH  046%=      5-min Rain = 0
KST2 201624Z 17018KT 33/20 A2992 RMK A01 T03310199  RH  046%=      5-min Rain = 0
KST2 201625Z 17016KT 33/20 A2992 RMK A01 T03290195  RH  045%=      5-min Rain = 0
KST2 201626Z 19014KT 33/20 A2992 RMK A01 T03260196  RH  046%=      5-min Rain = 0
KST2 201627Z 17015KT 33/20 A2992 RMK A01 T03260197  RH  047%=      5-min Rain = 0
KST2 201628Z 17013KT 33/20 A2992 RMK A01 T03270198  RH  047%=      5-min Rain = 0
KST2 201629Z 18015KT 33/20 A2992 RMK A01 T03310198  RH  046%=      5-min Rain = 0
KST2 201630Z 18017KT 33/20 A2992 RMK A01 T03290196  RH  046%=      5-min Rain = 0
KST2 201631Z 17016G21KT 33/20 A2992 RMK A01 T03270195  RH  046%=      5-min Rain = 0
KST2 201632Z 18017KT 33/19 A2992 RMK A01 T03250194  RH  046%=      5-min Rain = 0
KST2 201633Z 18018KT 33/20 A2992 RMK A01 T03260196  RH  046%=      5-min Rain = 0
KST2 201634Z 19016KT 33/20 A2992 RMK A01 T03280196  RH  046%=      5-min Rain = 0
KST2 201635Z 19014KT 33/20 A2992 RMK A01 T03270198  RH  047%=      5-min Rain = 0
KST2 201636Z 17015KT 33/20 A2992 RMK A01 T03270197  RH  047%=      5-min Rain = 0
KST2 201637Z 18017KT 33/20 A2992 RMK A01 T03290196  RH  046%=      5-min Rain = 0
KST2 201638Z 17013KT 33/20 A2992 RMK A01 T03300196  RH  045%=      5-min Rain = 0
KST2 201639Z 17015KT 33/20 A2992 RMK A01 T03320198  RH  045%=      5-min Rain = 0
KST2 201640Z 17015KT 34/20 A2992 RMK A01 T03350198  RH  045%=      5-min Rain = 0
KST2 201641Z 18011KT 34/20 A2992 RMK A01 T03360196  RH  044%=      5-min Rain = 0
KST2 201642Z 17013G19KT 34/20 A2992 RMK A01 T03350198  RH  045%=      5-min Rain = 0
KST2 201643Z 19013KT 34/20 A2992 RMK A01 T03370199  RH  044%=      5-min Rain = 0
KST2 201644Z 18015KT 34/20 A2992 RMK A01 T03370196  RH  044%=      5-min Rain = 0
KST2 201645Z 17015KT 33/20 A2992 RMK A01 T03340196  RH  044%=      5-min Rain = 0
KST2 201646Z 18016KT 33/20 A2992 RMK A01 T03340196  RH  044%=      5-min Rain = 0
KST2 201647Z 18013G18KT 33/20 A2992 RMK A01 T03330196  RH  045%=      5-min Rain = 0
KST2 201648Z 19016KT 33/20 A2992 RMK A01 T03320196  RH  045%=      5-min Rain = 0
KST2 201649Z 20017KT 33/20 A2992 RMK A01 T03320196  RH  045%=      5-min Rain = 0
KST2 201650Z 19016KT 33/20 A2992 RMK A01 T03340196  RH  044%=      5-min Rain = 0
KST2 201651Z 19016KT 34/20 A2992 RMK A01 T03350195  RH  044%=      5-min Rain = 0
KST2 201652Z 20014KT 33/20 A2992 RMK A01 T03340195  RH  044%=      5-min Rain = 0
KST2 201653Z 19014G19KT 33/19 A2992 RMK A01 T03330194  RH  044%=      5-min Rain = 0
KST2 201654Z 17017KT 33/19 A2992 RMK A01 T03330193  RH  044%=      5-min Rain = 0
KST2 201655Z 17017KT 33/19 A2992 RMK A01 T03340193  RH  043%=      5-min Rain = 0
KST2 201656Z 17016KT 33/19 A2992 RMK A01 T03330193  RH  044%=      5-min Rain = 0
KST2 201657Z 17014G22KT 33/19 A2992 RMK A01 T03300193  RH  044%=      5-min Rain = 0
KST2 201658Z 18017G22KT 33/19 A2992 RMK A01 T03300192  RH  044%=      5-min Rain = 0
KST2 201659Z 18016KT 33/19 A2992 RMK A01 T03310190  RH  043%=      5-min Rain = 0
KST2 201700Z 18013KT 33/19 A2992 RMK A01 T03330192  RH  043%=      5-min Rain = 0
KST2 201701Z 20012KT 34/20 A2992 RMK A01 T03360195  RH  043%=      5-min Rain = 0
KST2 201702Z 17017KT 34/20 A2992 RMK A01 T03390196  RH  043%=      5-min Rain = 0
KST2 201703Z 18016KT 34/19 A2992 RMK A01 T03400194  RH  042%=      5-min Rain = 0
KST2 201704Z 18018KT 34/19 A2992 RMK A01 T03400192  RH  042%=      5-min Rain = 0
KST2 201705Z 18016KT 34/19 A2992 RMK A01 T03400190  RH  041%=      5-min Rain = 0
KST2 201706Z 18017KT 34/19 A2992 RMK A01 T03390191  RH  042%=      5-min Rain = 0
KST2 201707Z 18016KT 34/19 A2992 RMK A01 T03380189  RH  041%=      5-min Rain = 0
KST2 201708Z 17016KT 34/19 A2992 RMK A01 T03380192  RH  042%=      5-min Rain = 0
KST2 201709Z 18016KT 34/20 A2992 RMK A01 T03400195  RH  042%=      5-min Rain = 0
KST2 201710Z 18017KT 34/19 A2992 RMK A01 T03410192  RH  042%=      5-min Rain = 0
KST2 201711Z 18015KT 34/19 A2992 RMK A01 T03400193  RH  042%=      5-min Rain = 0
KST2 201712Z 18017G23KT 34/19 A2992 RMK A01 T03410192  RH  042%=      5-min Rain = 0
KST2 201713Z 18015KT 34/19 A2992 RMK A01 T03420191  RH  041%=      5-min Rain = 0
KST2 201714Z 18015G21KT 34/19 A2992 RMK A01 T03420190  RH  041%=      5-min Rain = 0
KST2 201715Z 17015KT 34/19 A2992 RMK A01 T03420189  RH  041%=      5-min Rain = 0
KST2 201716Z 19018KT 34/19 A2992 RMK A01 T03420191  RH  041%=      5-min Rain = 0
KST2 201717Z 18015KT 34/19 A2992 RMK A01 T03430192  RH  041%=      5-min Rain = 0
KST2 201718Z 18017G24KT 34/19 A2992 RMK A01 T03420190  RH  041%=      5-min Rain = 0
KST2 201719Z 19015KT 34/19 A2992 RMK A01 T03420191  RH  041%=      5-min Rain = 0
KST2 201720Z 20015G20KT 34/19 A2992 RMK A01 T03430190  RH  041%=      5-min Rain = 0
KST2 201721Z 19014KT 34/19 A2992 RMK A01 T03420192  RH  041%=      5-min Rain = 0
KST2 201722Z 19018G23KT 34/19 A2992 RMK A01 T03430190  RH  041%=      5-min Rain = 0
KST2 201723Z 18019KT 34/19 A2992 RMK A01 T03430191  RH  041%=      5-min Rain = 0
KST2 201724Z 18018KT 34/19 A2992 RMK A01 T03440188  RH  040%=      5-min Rain = 0
KST2 201725Z 18018KT 34/19 A2992 RMK A01 T03420188  RH  040%=      5-min Rain = 0
KST2 201726Z 18018KT 34/19 A2992 RMK A01 T03420188  RH  040%=      5-min Rain = 0
KST2 201727Z 18016KT 34/19 A2992 RMK A01 T03420188  RH  040%=      5-min Rain = 0
KST2 201728Z 18013KT 34/19 A2992 RMK A01 T03440188  RH  040%=      5-min Rain = 0
KST2 201729Z 18012KT 35/19 A2992 RMK A01 T03460190  RH  040%=      5-min Rain = 0
KST2 201730Z 19017KT 35/19 A2992 RMK A01 T03490192  RH  040%=      5-min Rain = 0
KST2 201731Z 19017KT 35/19 A2992 RMK A01 T03490189  RH  039%=      5-min Rain = 0
KST2 201732Z 18019G24KT 35/19 A2992 RMK A01 T03480189  RH  039%=      5-min Rain = 0
KST2 201733Z 17016KT 35/19 A2992 RMK A01 T03480187  RH  039%=      5-min Rain = 0
KST2 201734Z 17017G22KT 35/19 A2992 RMK A01 T03470187  RH  039%=      5-min Rain = 0
KST2 201735Z 18019KT 35/19 A2992 RMK A01 T03480186  RH  038%=      5-min Rain = 0
KST2 201736Z 18016KT 35/19 A2992 RMK A01 T03480186  RH  039%=      5-min Rain = 0
KST2 201737Z 19012KT 35/19 A2992 RMK A01 T03470187  RH  039%=      5-min Rain = 0
KST2 201738Z 21013KT 35/19 A2992 RMK A01 T03470189  RH  039%=      5-min Rain = 0
KST2 201739Z 20015KT 35/19 A2991 RMK A01 T03480187  RH  039%=      5-min Rain = 0
KST2 201740Z 18017G22KT 35/19 A2991 RMK A01 T03480188  RH  039%=      5-min Rain = 0
KST2 201741Z 18016KT 35/19 A2992 RMK A01 T03500189  RH  039%=      5-min Rain = 0
KST2 201742Z 19017KT 35/19 A2992 RMK A01 T03520187  RH  038%=      5-min Rain = 0
KST2 201743Z 18017KT 35/19 A2992 RMK A01 T03510187  RH  038%=      5-min Rain = 0
KST2 201744Z 16015KT 35/19 A2992 RMK A01 T03510188  RH  038%=      5-min Rain = 0
KST2 201745Z 16015KT 35/19 A2992 RMK A01 T03510190  RH  039%=      5-min Rain = 0
KST2 201746Z 17013KT 35/19 A2992 RMK A01 T03510191  RH  039%=      5-min Rain = 0
KST2 201747Z 18012KT 35/19 A2992 RMK A01 T03520191  RH  039%=      5-min Rain = 0
KST2 201748Z 19016KT 35/19 A2991 RMK A01 T03530190  RH  038%=      5-min Rain = 0
KST2 201749Z 20011KT 35/19 A2992 RMK A01 T03540190  RH  038%=      5-min Rain = 0
KST2 201750Z 17016KT 35/19 A2991 RMK A01 T03540191  RH  038%=      5-min Rain = 0
KST2 201751Z 16013KT 35/19 A2991 RMK A01 T03540189  RH  038%=      5-min Rain = 0
KST2 201752Z 16015KT 35/19 A2991 RMK A01 T03530189  RH  038%=      5-min Rain = 0
KST2 201753Z 19015KT 35/19 A2991 RMK A01 T03540192  RH  039%=      5-min Rain = 0
KST2 201754Z 19017KT 36/19 A2991 RMK A01 T03560193  RH  038%=      5-min Rain = 0
KST2 201755Z 19013KT 36/19 A2991 RMK A01 T03550191  RH  038%=      5-min Rain = 0
KST2 201756Z 18014KT 35/19 A2991 RMK A01 T03530192  RH  039%=      5-min Rain = 0
KST2 201757Z 18013KT 35/19 A2991 RMK A01 T03520190  RH  039%=      5-min Rain = 0
KST2 201758Z 18016G21KT 35/19 A2991 RMK A01 T03530191  RH  039%=      5-min Rain = 0
KST2 201759Z 17019KT 36/19 A2991 RMK A01 T03550187  RH  037%=      5-min Rain = 0
KST2 201800Z 17018KT 35/19 A2991 RMK A01 T03540186  RH  037%=      5-min Rain = 0
KST2 201801Z 17016KT 36/19 A2991 RMK A01 T03550186  RH  037%=      5-min Rain = 0
KST2 201802Z 18017KT 36/19 A2991 RMK A01 T03550187  RH  037%=      5-min Rain = 0
KST2 201803Z 18017KT 36/19 A2991 RMK A01 T03550187  RH  037%=      5-min Rain = 0
KST2 201804Z 17016KT 35/19 A2991 RMK A01 T03530188  RH  038%=      5-min Rain = 0
KST2 201805Z 18013KT 35/19 A2991 RMK A01 T03540187  RH  037%=      5-min Rain = 0
KST2 201806Z 18014KT 36/19 A2991 RMK A01 T03550185  RH  037%=      5-min Rain = 0
KST2 201807Z 18017G22KT 36/19 A2991 RMK A01 T03560188  RH  037%=      5-min Rain = 0
KST2 201808Z 18018KT 36/19 A2991 RMK A01 T03580186  RH  036%=      5-min Rain = 0
KST2 201809Z 20016KT 36/19 A2991 RMK A01 T03580190  RH  037%=      5-min Rain = 0
KST2 201810Z 19015KT 36/19 A2991 RMK A01 T03580189  RH  037%=      5-min Rain = 0
KST2 201811Z 18015G21KT 36/19 A2991 RMK A01 T03570190  RH  038%=      5-min Rain = 0
KST2 201812Z 19017KT 36/19 A2991 RMK A01 T03560187  RH  037%=      5-min Rain = 0
KST2 201813Z 19017KT 36/19 A2991 RMK A01 T03550187  RH  037%=      5-min Rain = 0
KST2 201814Z 19016KT 35/19 A2991 RMK A01 T03540188  RH  038%=      5-min Rain = 0
KST2 201815Z 19019G24KT 36/19 A2991 RMK A01 T03550190  RH  038%=      5-min Rain = 0
KST2 201816Z 19014KT 36/19 A2991 RMK A01 T03550189  RH  038%=      5-min Rain = 0
KST2 201817Z 20017KT 36/19 A2991 RMK A01 T03550190  RH  038%=      5-min Rain = 0
KST2 201818Z 19017KT 36/19 A2991 RMK A01 T03550191  RH  038%=      5-min Rain = 0
KST2 201819Z 19015KT 36/19 A2991 RMK A01 T03550190  RH  038%=      5-min Rain = 0
KST2 201820Z 18012KT 35/19 A2991 RMK A01 T03530190  RH  038%=      5-min Rain = 0
KST2 201821Z 17014KT 35/19 A2991 RMK A01 T03540191  RH  038%=      5-min Rain = 0
KST2 201822Z 19015KT 36/19 A2991 RMK A01 T03570194  RH  038%=      5-min Rain = 0
KST2 201823Z 18015KT 36/19 A2991 RMK A01 T03610194  RH  038%=      5-min Rain = 0
KST2 201824Z 17013KT 36/19 A2991 RMK A01 T03610193  RH  037%=      5-min Rain = 0
KST2 201825Z 17013KT 36/19 A299 RMK A01 T03580193  RH  038%=      5-min Rain = 0
KST2 201826Z 19015KT 36/19 A2991 RMK A01 T03590194  RH  038%=      5-min Rain = 0
KST2 201827Z 19015KT 36/19 A2991 RMK A01 T03630193  RH  037%=      5-min Rain = 0
KST2 201828Z 17014KT 36/19 A299 RMK A01 T03630192  RH  037%=      5-min Rain = 0
KST2 201829Z 18014KT 36/19 A299 RMK A01 T03620192  RH  037%=      5-min Rain = 0
KST2 201830Z 17014KT 36/19 A299 RMK A01 T03620192  RH  037%=      5-min Rain = 0
KST2 201831Z 16014KT 36/19 A299 RMK A01 T03610192  RH  037%=      5-min Rain = 0
KST2 201832Z 17016KT 36/19 A299 RMK A01 T03590193  RH  038%=      5-min Rain = 0
KST2 201833Z 16015KT 36/19 A299 RMK A01 T03580194  RH  038%=      5-min Rain = 0
KST2 201834Z 17013KT 36/19 A299 RMK A01 T03570192  RH  038%=      5-min Rain = 0
KST2 201835Z 20013KT 36/19 A299 RMK A01 T03560194  RH  039%=      5-min Rain = 0
KST2 201836Z 20014KT 36/19 A299 RMK A01 T03590191  RH  037%=      5-min Rain = 0
KST2 201837Z 18015KT 36/19 A299 RMK A01 T03600193  RH  038%=      5-min Rain = 0
KST2 201838Z 17014KT 36/20 A299 RMK A01 T03600195  RH  038%=      5-min Rain = 0
KST2 201839Z 17019G24KT 36/19 A299 RMK A01 T03620194  RH  038%=      5-min Rain = 0
KST2 201840Z 18018G23KT 36/19 A299 RMK A01 T03620193  RH  037%=      5-min Rain = 0
KST2 201841Z 18018KT 36/19 A299 RMK A01 T03620191  RH  037%=      5-min Rain = 0
KST2 201842Z 19018KT 36/19 A299 RMK A01 T03610190  RH  037%=      5-min Rain = 0
KST2 201843Z 18015KT 36/19 A299 RMK A01 T03590191  RH  037%=      5-min Rain = 0
KST2 201844Z 18017KT 36/19 A299 RMK A01 T03590191  RH  037%=      5-min Rain = 0
KST2 201845Z 18020KT 36/19 A299 RMK A01 T03590194  RH  038%=      5-min Rain = 0
KST2 201846Z 18015KT 36/19 A299 RMK A01 T03580193  RH  038%=      5-min Rain = 0
KST2 201847Z 19012KT 36/19 A299 RMK A01 T03580193  RH  038%=      5-min Rain = 0
KST2 201848Z 17014KT 36/19 A299 RMK A01 T03580194  RH  038%=      5-min Rain = 0
KST2 201849Z 18016KT 36/19 A299 RMK A01 T03580193  RH  038%=      5-min Rain = 0
KST2 201850Z 19019KT 36/19 A299 RMK A01 T03600193  RH  037%=      5-min Rain = 0
KST2 201851Z 19018KT 36/19 A299 RMK A01 T03610191  RH  037%=      5-min Rain = 0
KST2 201852Z 19016KT 36/19 A299 RMK A01 T03590189  RH  037%=      5-min Rain = 0
KST2 201853Z 18013KT 36/19 A299 RMK A01 T03560190  RH  038%=      5-min Rain = 0
KST2 201854Z 19014KT 36/19 A299 RMK A01 T03550191  RH  038%=      5-min Rain = 0
KST2 201855Z 18014G19KT 36/19 A299 RMK A01 T03570193  RH  038%=      5-min Rain = 0
KST2 201856Z 17016KT 36/19 A2989 RMK A01 T03600193  RH  038%=      5-min Rain = 0
KST2 201857Z 17012KT 36/19 A299 RMK A01 T03600191  RH  037%=      5-min Rain = 0
KST2 201858Z 17014G20KT 36/19 A299 RMK A01 T03610192  RH  037%=      5-min Rain = 0
KST2 201859Z 18017G23KT 36/19 A2989 RMK A01 T03610189  RH  036%=      5-min Rain = 0
KST2 201900Z 19013KT 36/19 A299 RMK A01 T03630188  RH  036%=      5-min Rain = 0
KST2 201901Z 19009KT 36/19 A299 RMK A01 T03630189  RH  036%=      5-min Rain = 0
KST2 201902Z 18008KT 36/19 A2989 RMK A01 T03620191  RH  037%=      5-min Rain = 0
KST2 201903Z 17017KT 36/19 A2989 RMK A01 T03630194  RH  037%=      5-min Rain = 0
KST2 201904Z 19019KT 37/19 A2989 RMK A01 T03660194  RH  036%=      5-min Rain = 0
KST2 201905Z 18018KT 37/19 A2989 RMK A01 T03660190  RH  036%=      5-min Rain = 0
KST2 201906Z 18015KT 36/19 A2989 RMK A01 T03640188  RH  036%=      5-min Rain = 0
KST2 201907Z 17015KT 36/19 A2989 RMK A01 T03640189  RH  036%=      5-min Rain = 0
KST2 201908Z 17010KT 36/19 A2989 RMK A01 T03630191  RH  037%=      5-min Rain = 0
KST2 201909Z 16010KT 36/19 A2989 RMK A01 T03630192  RH  037%=      5-min Rain = 0
KST2 201910Z 19012KT 37/20 A2989 RMK A01 T03660195  RH  037%=      5-min Rain = 0
KST2 201911Z 20013KT 37/19 A2989 RMK A01 T03660194  RH  037%=      5-min Rain = 0
KST2 201912Z 19014KT 37/20 A2989 RMK A01 T03660196  RH  037%=      5-min Rain = 0
KST2 201913Z 18014KT 37/19 A2989 RMK A01 T03670194  RH  036%=      5-min Rain = 0
KST2 201914Z 18014KT 37/19 A2989 RMK A01 T03660193  RH  036%=      5-min Rain = 0
KST2 201915Z 19014G20KT 36/19 A2989 RMK A01 T03640191  RH  036%=      5-min Rain = 0
KST2 201916Z 19017KT 36/19 A2989 RMK A01 T03620192  RH  037%=      5-min Rain = 0
KST2 201917Z 19013KT 36/19 A2989 RMK A01 T03630192  RH  037%=      5-min Rain = 0
KST2 201918Z 20017KT 36/19 A2989 RMK A01 T03640193  RH  037%=      5-min Rain = 0
KST2 201919Z 18018KT 36/19 A2989 RMK A01 T03640192  RH  036%=      5-min Rain = 0
KST2 201920Z 18016KT 36/19 A2989 RMK A01 T03640190  RH  036%=      5-min Rain = 0
KST2 201921Z 17016G22KT 37/19 A2989 RMK A01 T03650191  RH  036%=      5-min Rain = 0
KST2 201922Z 17017KT 37/19 A2989 RMK A01 T03660191  RH  036%=      5-min Rain = 0
KST2 201923Z 18014KT 37/19 A2989 RMK A01 T03660188  RH  035%=      5-min Rain = 0
KST2 201924Z 17013KT 36/19 A2989 RMK A01 T03640187  RH  035%=      5-min Rain = 0
KST2 201925Z 17011G16KT 36/19 A2989 RMK A01 T03630187  RH  036%=      5-min Rain = 0
KST2 201926Z 16013KT 36/19 A2988 RMK A01 T03620190  RH  037%=      5-min Rain = 0
KST2 201927Z 15016KT 36/19 A2988 RMK A01 T03630192  RH  037%=      5-min Rain = 0
KST2 201928Z 16013KT 36/19 A2988 RMK A01 T03640192  RH  037%=      5-min Rain = 0
KST2 201929Z 17012G18KT 36/19 A2988 RMK A01 T03640192  RH  036%=      5-min Rain = 0
KST2 201930Z 18018KT 37/19 A2988 RMK A01 T03660190  RH  036%=      5-min Rain = 0
KST2 201931Z 18015KT 37/19 A2988 RMK A01 T03660190  RH  036%=      5-min Rain = 0
KST2 201932Z 18017KT 37/19 A2988 RMK A01 T03690192  RH  036%=      5-min Rain = 0
KST2 201933Z 18018G23KT 37/19 A2988 RMK A01 T03690190  RH  035%=      5-min Rain = 0
KST2 201934Z 16017KT 37/19 A2988 RMK A01 T03690189  RH  035%=      5-min Rain = 0
KST2 201935Z 16017KT 37/19 A2988 RMK A01 T03670190  RH  036%=      5-min Rain = 0
KST2 201936Z 17016KT 37/19 A2988 RMK A01 T03670190  RH  036%=      5-min Rain = 0
KST2 201937Z 17014KT 37/19 A2988 RMK A01 T03660190  RH  036%=      5-min Rain = 0
KST2 201938Z 16015KT 37/19 A2988 RMK A01 T03660192  RH  036%=      5-min Rain = 0
KST2 201939Z 15016KT 37/19 A2988 RMK A01 T03680192  RH  036%=      5-min Rain = 0
KST2 201940Z 16015G22KT 37/19 A2988 RMK A01 T03680191  RH  035%=      5-min Rain = 0
KST2 201941Z 17018G23KT 37/19 A2988 RMK A01 T03670191  RH  036%=      5-min Rain = 0
KST2 201942Z 16019KT 37/19 A2988 RMK A01 T03670191  RH  036%=      5-min Rain = 0
KST2 201943Z 17018KT 37/19 A2988 RMK A01 T03670191  RH  036%=      5-min Rain = 0
KST2 201944Z 17015KT 37/19 A2988 RMK A01 T03660191  RH  036%=      5-min Rain = 0
KST2 201945Z 17014G21KT 37/19 A2988 RMK A01 T03680190  RH  035%=      5-min Rain = 0
KST2 201946Z 15018KT 37/19 A2987 RMK A01 T03680190  RH  035%=      5-min Rain = 0
KST2 201947Z 16013KT 37/19 A2987 RMK A01 T03670189  RH  035%=      5-min Rain = 0
KST2 201948Z 15015G26KT 37/19 A2987 RMK A01 T03670191  RH  036%=      5-min Rain = 0
KST2 201949Z 18018G23KT 37/19 A2987 RMK A01 T03700193  RH  036%=      5-min Rain = 0
KST2 201950Z 19018KT 37/19 A2987 RMK A01 T03710190  RH  035%=      5-min Rain = 0
KST2 201951Z 18017KT 37/19 A2987 RMK A01 T03700191  RH  035%=      5-min Rain = 0
KST2 201952Z 17012KT 37/19 A2987 RMK A01 T03700191  RH  035%=      5-min Rain = 0
KST2 201953Z 18017KT 37/19 A2987 RMK A01 T03690191  RH  035%=      5-min Rain = 0
KST2 201954Z 18018G23KT 37/19 A2987 RMK A01 T03700190  RH  035%=      5-min Rain = 0
KST2 201955Z 18014KT 37/19 A2987 RMK A01 T03710189  RH  035%=      5-min Rain = 0
KST2 201956Z 18015G21KT 37/19 A2987 RMK A01 T03690189  RH  035%=      5-min Rain = 0
KST2 201957Z 18015KT 37/19 A2987 RMK A01 T03690189  RH  035%=      5-min Rain = 0
KST2 201958Z 19015KT 37/19 A2987 RMK A01 T03700188  RH  035%=      5-min Rain = 0
KST2 201959Z 18014KT 37/19 A2987 RMK A01 T03680189  RH  035%=      5-min Rain = 0
KST2 202000Z 16017KT 37/19 A2987 RMK A01 T03700189  RH  035%=      5-min Rain = 0
KST2 202001Z 17014KT 37/19 A2987 RMK A01 T03700188  RH  034%=      5-min Rain = 0
KST2 202002Z 16020KT 37/19 A2987 RMK A01 T03710190  RH  035%=      5-min Rain = 0
KST2 202003Z 16018KT 37/19 A2987 RMK A01 T03730188  RH  034%=      5-min Rain = 0
KST2 202004Z 16017KT 37/19 A2987 RMK A01 T03720187  RH  034%=      5-min Rain = 0
KST2 202005Z 16014KT 37/19 A2987 RMK A01 T03700187  RH  034%=      5-min Rain = 0
KST2 202006Z 16012KT 37/19 A2987 RMK A01 T03690187  RH  034%=      5-min Rain = 0
KST2 202007Z 16018G25KT 37/19 A2986 RMK A01 T03680187  RH  035%=      5-min Rain = 0
KST2 202008Z 17017G22KT 37/18 A2987 RMK A01 T03700181  RH  033%=      5-min Rain = 0
KST2 202009Z 16018KT 37/18 A2986 RMK A01 T03680183  RH  034%=      5-min Rain = 0
KST2 202010Z 15016KT 37/18 A2987 RMK A01 T03670183  RH  034%=      5-min Rain = 0
KST2 202011Z 17013KT 37/18 A2987 RMK A01 T03690184  RH  034%=      5-min Rain = 0
KST2 202012Z 18017G23KT 37/19 A2986 RMK A01 T03700187  RH  034%=      5-min Rain = 0
KST2 202013Z 17016G21KT 37/19 A2986 RMK A01 T03720188  RH  034%=      5-min Rain = 0
KST2 202014Z 17015KT 37/19 A2986 RMK A01 T03720186  RH  034%=      5-min Rain = 0
KST2 202015Z 17018G26KT 37/19 A2986 RMK A01 T03700186  RH  034%=      5-min Rain = 0
KST2 202016Z 16021KT 37/19 A2986 RMK A01 T03700188  RH  035%=      5-min Rain = 0
KST2 202017Z 16017G22KT 37/19 A2986 RMK A01 T03720187  RH  034%=      5-min Rain = 0
KST2 202018Z 17014G19KT 37/19 A2986 RMK A01 T03700186  RH  034%=      5-min Rain = 0
KST2 202019Z 17022KT 37/19 A2986 RMK A01 T03690185  RH  034%=      5-min Rain = 0
KST2 202020Z 18018KT 37/18 A2986 RMK A01 T03690184  RH  034%=      5-min Rain = 0
KST2 202021Z 15018KT 37/19 A2986 RMK A01 T03700185  RH  034%=      5-min Rain = 0
KST2 202022Z 16016KT 37/18 A2986 RMK A01 T03720183  RH  033%=      5-min Rain = 0
KST2 202023Z 16017G22KT 37/18 A2986 RMK A01 T03700184  RH  034%=      5-min Rain = 0
KST2 202024Z 15016KT 37/19 A2986 RMK A01 T03700185  RH  034%=      5-min Rain = 0
KST2 202025Z 17020KT 37/19 A2986 RMK A01 T03720188  RH  034%=      5-min Rain = 0
KST2 202026Z 18018KT 37/18 A2986 RMK A01 T03740184  RH  033%=      5-min Rain = 0
KST2 202027Z 18014KT 37/18 A2986 RMK A01 T03730182  RH  033%=      5-min Rain = 0
KST2 202028Z 16015KT 37/19 A2986 RMK A01 T03730186  RH  034%=      5-min Rain = 0
KST2 202029Z 16012KT 37/19 A2986 RMK A01 T03730186  RH  034%=      5-min Rain = 0
KST2 202030Z 18016G22KT 37/19 A2986 RMK A01 T03720188  RH  034%=      5-min Rain = 0
KST2 202031Z 18017G22KT 37/19 A2986 RMK A01 T03730186  RH  034%=      5-min Rain = 0
KST2 202032Z 18015KT 38/19 A2986 RMK A01 T03750188  RH  034%=      5-min Rain = 0
KST2 202033Z 19013KT 38/19 A2986 RMK A01 T03770189  RH  033%=      5-min Rain = 0
KST2 202034Z 21015KT 38/19 A2986 RMK A01 T03790189  RH  033%=      5-min Rain = 0
KST2 202035Z 19013KT 38/19 A2986 RMK A01 T03770187  RH  033%=      5-min Rain = 0
KST2 202036Z 16014KT 38/19 A2986 RMK A01 T03750187  RH  034%=      5-min Rain = 0
KST2 202037Z 15018KT 38/19 A2986 RMK A01 T03750185  RH  033%=      5-min Rain = 0
KST2 202038Z 15017KT 37/19 A2986 RMK A01 T03730185  RH  033%=      5-min Rain = 0
KST2 202039Z 17018KT 37/19 A2985 RMK A01 T03730185  RH  033%=      5-min Rain = 0
KST2 202040Z 18019KT 37/18 A2986 RMK A01 T03730183  RH  033%=      5-min Rain = 0
KST2 202041Z 17017KT 37/19 A2986 RMK A01 T03730185  RH  033%=      5-min Rain = 0
KST2 202042Z 17017KT 37/19 A2986 RMK A01 T03730186  RH  034%=      5-min Rain = 0
KST2 202043Z 16015KT 37/19 A2986 RMK A01 T03720187  RH  034%=      5-min Rain = 0
KST2 202044Z 17014KT 37/19 A2986 RMK A01 T03730186  RH  034%=      5-min Rain = 0
KST2 202045Z 15011KT 37/19 A2985 RMK A01 T03730186  RH  034%=      5-min Rain = 0
KST2 202046Z 18016KT 37/19 A2985 RMK A01 T03740188  RH  034%=      5-min Rain = 0
KST2 202047Z 17016KT 38/19 A2985 RMK A01 T03760187  RH  033%=      5-min Rain = 0
KST2 202048Z 16015KT 38/19 A2985 RMK A01 T03760186  RH  033%=      5-min Rain = 0
KST2 202049Z 17014KT 38/19 A2985 RMK A01 T03750185  RH  033%=      5-min Rain = 0
KST2 202050Z 18013KT 37/19 A2985 RMK A01 T03730185  RH  033%=      5-min Rain = 0
KST2 202051Z 18019G24KT 37/18 A2985 RMK A01 T03730183  RH  033%=      5-min Rain = 0
KST2 202052Z 18015KT 37/18 A2985 RMK A01 T03740180  RH  032%=      5-min Rain = 0
KST2 202053Z 18018G24KT 38/18 A2985 RMK A01 T03750183  RH  032%=      5-min Rain = 0
KST2 202054Z 16019KT 38/18 A2985 RMK A01 T03760183  RH  032%=      5-min Rain = 0
KST2 202055Z 17014KT 38/18 A2985 RMK A01 T03770183  RH  032%=      5-min Rain = 0
KST2 202056Z 18018G23KT 38/18 A2985 RMK A01 T03780184  RH  032%=      5-min Rain = 0
KST2 202057Z 17015KT 38/18 A2985 RMK A01 T03780179  RH  031%=      5-min Rain = 0
KST2 202058Z 17013KT 38/18 A2985 RMK A01 T03750179  RH  032%=      5-min Rain = 0
KST2 202059Z 17011KT 37/18 A2985 RMK A01 T03740180  RH  032%=      5-min Rain = 0
KST2 202100Z 17016G21KT 37/18 A2985 RMK A01 T03740182  RH  033%=      5-min Rain = 0
KST2 202101Z 16018KT 38/19 A2985 RMK A01 T03750185  RH  033%=      5-min Rain = 0
KST2 202102Z 14015KT 38/18 A2985 RMK A01 T03760183  RH  032%=      5-min Rain = 0
KST2 202103Z 16014KT 37/18 A2985 RMK A01 T03740183  RH  033%=      5-min Rain = 0
KST2 202104Z 16015KT 38/18 A2985 RMK A01 T03750184  RH  033%=      5-min Rain = 0
KST2 202105Z 18017KT 38/18 A2985 RMK A01 T03750180  RH  032%=      5-min Rain = 0
KST2 202106Z 18016KT 37/18 A2985 RMK A01 T03740179  RH  032%=      5-min Rain = 0
KST2 202107Z 17019G24KT 37/18 A2985 RMK A01 T03740180  RH  032%=      5-min Rain = 0
KST2 202108Z 17019KT 38/18 A2985 RMK A01 T03760178  RH  031%=      5-min Rain = 0
KST2 202109Z 17016KT 38/18 A2985 RMK A01 T03770176  RH  031%=      5-min Rain = 0
KST2 202110Z 17013KT 38/18 A2985 RMK A01 T03760176  RH  031%=      5-min Rain = 0
KST2 202111Z 18012G17KT 38/18 A2985 RMK A01 T03760177  RH  031%=      5-min Rain = 0
KST2 202112Z 19017KT 38/18 A2985 RMK A01 T03760181  RH  032%=      5-min Rain = 0
KST2 202113Z 19017KT 38/18 A2985 RMK A01 T03760181  RH  032%=      5-min Rain = 0
KST2 202114Z 19014KT 37/18 A2985 RMK A01 T03740178  RH  032%=      5-min Rain = 0
KST2 202115Z 19014KT 37/18 A2985 RMK A01 T03730179  RH  032%=      5-min Rain = 0
KST2 202116Z 19016G22KT 37/18 A2985 RMK A01 T03730182  RH  033%=      5-min Rain = 0
KST2 202117Z 17019KT 38/19 A2985 RMK A01 T03750185  RH  033%=      5-min Rain = 0
KST2 202118Z 17018KT 38/18 A2985 RMK A01 T03770184  RH  033%=      5-min Rain = 0
KST2 202119Z 18015KT 38/18 A2985 RMK A01 T03760184  RH  033%=      5-min Rain = 0
KST2 202120Z 17013KT 38/18 A2985 RMK A01 T03770180  RH  032%=      5-min Rain = 0
KST2 202121Z 17012KT 38/18 A2985 RMK A01 T03760177  RH  031%=      5-min Rain = 0
KST2 202122Z 18014G20KT 38/18 A2985 RMK A01 T03750179  RH  032%=      5-min Rain = 0
KST2 202123Z 17020KT 38/18 A2985 RMK A01 T03770182  RH  032%=      5-min Rain = 0
KST2 202124Z 17017G23KT 38/18 A2985 RMK A01 T03780182  RH  032%=      5-min Rain = 0
KST2 202125Z 17015KT 38/18 A2985 RMK A01 T03790183  RH  032%=      5-min Rain = 0
KST2 202126Z 18017KT 38/18 A2985 RMK A01 T03790181  RH  032%=      5-min Rain = 0
KST2 202127Z 17014KT 38/18 A2985 RMK A01 T03780179  RH  031%=      5-min Rain = 0
KST2 202128Z 17018KT 38/18 A2985 RMK A01 T03770182  RH  032%=      5-min Rain = 0
KST2 202129Z 17018KT 38/18 A2985 RMK A01 T03780182  RH  032%=      5-min Rain = 0
KST2 202130Z 16016KT 38/18 A2985 RMK A01 T03760183  RH  032%=      5-min Rain = 0
KST2 202131Z 15012KT 38/18 A2985 RMK A01 T03760184  RH  032%=      5-min Rain = 0
KST2 202132Z 17015G21KT 38/19 A2985 RMK A01 T03770185  RH  033%=      5-min Rain = 0
KST2 202133Z 18015KT 38/19 A2985 RMK A01 T03810185  RH  032%=      5-min Rain = 0
KST2 202134Z 19013KT 38/18 A2985 RMK A01 T03830182  RH  031%=      5-min Rain = 0
KST2 202135Z 18013KT 38/18 A2985 RMK A01 T03800180  RH  031%=      5-min Rain = 0
KST2 202136Z 20013KT 38/18 A2985 RMK A01 T03780181  RH  031%=      5-min Rain = 0
KST2 202137Z 18012KT 38/18 A2984 RMK A01 T03780184  RH  032%=      5-min Rain = 0
KST2 202138Z 17015G20KT 38/18 A2984 RMK A01 T03780184  RH  032%=      5-min Rain = 0
KST2 202139Z 17013KT 38/19 A2984 RMK A01 T03790185  RH  032%=      5-min Rain = 0
KST2 202140Z 17014KT 38/18 A2984 RMK A01 T03800180  RH  031%=      5-min Rain = 0
KST2 202141Z 16012KT 38/18 A2984 RMK A01 T03790179  RH  031%=      5-min Rain = 0
KST2 202142Z 17014KT 38/18 A2984 RMK A01 T03790180  RH  031%=      5-min Rain = 0
KST2 202143Z 16017KT 38/18 A2984 RMK A01 T03790181  RH  031%=      5-min Rain = 0
KST2 202144Z 16012G18KT 38/18 A2984 RMK A01 T03780182  RH  032%=      5-min Rain = 0
KST2 202145Z 16013KT 37/18 A2984 RMK A01 T03740184  RH  033%=      5-min Rain = 0
KST2 202146Z 16017KT 38/19 A2984 RMK A01 T03760186  RH  033%=      5-min Rain = 0
KST2 202147Z 17018KT 38/19 A2984 RMK A01 T03770185  RH  033%=      5-min Rain = 0
KST2 202148Z 17013G20KT 38/18 A2984 RMK A01 T03760182  RH  032%=      5-min Rain = 0
KST2 202149Z 17013KT 38/18 A2984 RMK A01 T03750183  RH  032%=      5-min Rain = 0
KST2 202150Z 15012KT 38/18 A2984 RMK A01 T03750182  RH  032%=      5-min Rain = 0
KST2 202151Z 15014KT 38/18 A2984 RMK A01 T03760182  RH  032%=      5-min Rain = 0
KST2 202152Z 15017KT 38/18 A2984 RMK A01 T03770183  RH  032%=      5-min Rain = 0
KST2 202153Z 16015G22KT 38/18 A2984 RMK A01 T03780183  RH  032%=      5-min Rain = 0
KST2 202154Z 15018KT 38/18 A2984 RMK A01 T03770183  RH  032%=      5-min Rain = 0
KST2 202155Z 19013G25KT 38/18 A2984 RMK A01 T03770183  RH  032%=      5-min Rain = 0
KST2 202156Z 18015KT 38/18 A2984 RMK A01 T03790184  RH  032%=      5-min Rain = 0
KST2 202157Z 17014G19KT 38/19 A2984 RMK A01 T03790187  RH  033%=      5-min Rain = 0
KST2 202158Z 16014KT 38/19 A2984 RMK A01 T03800187  RH  033%=      5-min Rain = 0
KST2 202159Z 16018KT 38/19 A2984 RMK A01 T03810186  RH  032%=      5-min Rain = 0
KST2 202200Z 16015KT 38/18 A2984 RMK A01 T03780184  RH  032%=      5-min Rain = 0
KST2 202201Z 17011KT 38/19 A2984 RMK A01 T03770186  RH  033%=      5-min Rain = 0
KST2 202202Z 17013KT 38/18 A2984 RMK A01 T03790183  RH  032%=      5-min Rain = 0
KST2 202203Z 16014KT 38/18 A2984 RMK A01 T03780182  RH  032%=      5-min Rain = 0
KST2 202204Z 16013KT 38/18 A2984 RMK A01 T03770183  RH  032%=      5-min Rain = 0
KST2 202205Z 16018KT 38/19 A2984 RMK A01 T03760185  RH  033%=      5-min Rain = 0
KST2 202206Z 16018KT 38/18 A2984 RMK A01 T03770184  RH  032%=      5-min Rain = 0
KST2 202207Z 18014KT 38/18 A2984 RMK A01 T03770183  RH  032%=      5-min Rain = 0
KST2 202208Z 18013KT 38/18 A2984 RMK A01 T03770184  RH  032%=      5-min Rain = 0
KST2 202209Z 18011KT 38/19 A2984 RMK A01 T03770185  RH  033%=      5-min Rain = 0
KST2 202210Z 17014G19KT 38/19 A2984 RMK A01 T03800187  RH  033%=      5-min Rain = 0
KST2 202211Z 17017G22KT 38/19 A2984 RMK A01 T03820186  RH  032%=      5-min Rain = 0
KST2 202212Z 16017KT 38/18 A2984 RMK A01 T03810184  RH  032%=      5-min Rain = 0
KST2 202213Z 16014KT 38/19 A2984 RMK A01 T03800185  RH  032%=      5-min Rain = 0
KST2 202214Z 16015KT 38/18 A2984 RMK A01 T03800184  RH  032%=      5-min Rain = 0
KST2 202215Z 16014KT 38/18 A2984 RMK A01 T03790184  RH  032%=      5-min Rain = 0
KST2 202216Z 16015KT 38/18 A2984 RMK A01 T03780183  RH  032%=      5-min Rain = 0
KST2 202217Z 17020G27KT 38/18 A2983 RMK A01 T03770182  RH  032%=      5-min Rain = 0
KST2 202218Z 15018KT 38/18 A2983 RMK A01 T03770182  RH  032%=      5-min Rain = 0
KST2 202219Z 16017KT 38/18 A2983 RMK A01 T03780181  RH  032%=      5-min Rain = 0
KST2 202220Z 16017KT 38/18 A2983 RMK A01 T03770181  RH  032%=      5-min Rain = 0
KST2 202221Z 14016KT 38/18 A2983 RMK A01 T03780180  RH  031%=      5-min Rain = 0
KST2 202222Z 14015KT 38/18 A2983 RMK A01 T03770179  RH  031%=      5-min Rain = 0
KST2 202223Z 17014G19KT 38/18 A2983 RMK A01 T03770179  RH  031%=      5-min Rain = 0
KST2 202224Z 17015G20KT 38/18 A2983 RMK A01 T03760179  RH  032%=      5-min Rain = 0
KST2 202225Z 16013KT 38/18 A2983 RMK A01 T03760179  RH  032%=      5-min Rain = 0
KST2 202226Z 16013KT 38/18 A2984 RMK A01 T03760180  RH  032%=      5-min Rain = 0
KST2 202227Z 15014KT 38/18 A2983 RMK A01 T03770179  RH  031%=      5-min Rain = 0
KST2 202228Z 16015KT 38/18 A2983 RMK A01 T03770180  RH  032%=      5-min Rain = 0
KST2 202229Z 15015KT 38/18 A2983 RMK A01 T03770179  RH  032%=      5-min Rain = 0
KST2 202230Z 15016KT 38/18 A2983 RMK A01 T03760180  RH  032%=      5-min Rain = 0
KST2 202231Z 15014G19KT 38/18 A2983 RMK A01 T03760182  RH  032%=      5-min Rain = 0
KST2 202232Z 15016KT 38/18 A2983 RMK A01 T03770180  RH  032%=      5-min Rain = 0
KST2 202233Z 15018KT 38/18 A2983 RMK A01 T03770181  RH  032%=      5-min Rain = 0
KST2 202234Z 16015KT 38/18 A2983 RMK A01 T03770181  RH  032%=      5-min Rain = 0
KST2 202235Z 15014KT 38/18 A2983 RMK A01 T03760180  RH  032%=      5-min Rain = 0
KST2 202236Z 16013KT 38/18 A2983 RMK A01 T03760181  RH  032%=      5-min Rain = 0
KST2 202237Z 18012KT 38/18 A2983 RMK A01 T03770180  RH  032%=      5-min Rain = 0
KST2 202238Z 18013G18KT 38/18 A2983 RMK A01 T03790180  RH  031%=      5-min Rain = 0
KST2 202239Z 19017KT 38/18 A2983 RMK A01 T03790179  RH  031%=      5-min Rain = 0
KST2 202240Z 18013KT 38/18 A2983 RMK A01 T03780178  RH  031%=      5-min Rain = 0
KST2 202241Z 17012KT 38/18 A2983 RMK A01 T03760178  RH  031%=      5-min Rain = 0
KST2 202242Z 16015KT 38/18 A2983 RMK A01 T03770178  RH  031%=      5-min Rain = 0
KST2 202243Z 16013KT 38/18 A2983 RMK A01 T03780179  RH  031%=      5-min Rain = 0
KST2 202244Z 16012KT 38/18 A2983 RMK A01 T03780180  RH  031%=      5-min Rain = 0
KST2 202245Z 16014KT 38/18 A2983 RMK A01 T03790178  RH  031%=      5-min Rain = 0
KST2 202246Z 16014KT 38/18 A2983 RMK A01 T03770176  RH  031%=      5-min Rain = 0
KST2 202247Z 18016KT 38/18 A2983 RMK A01 T03770178  RH  031%=      5-min Rain = 0
KST2 202248Z 18018KT 38/18 A2983 RMK A01 T03780176  RH  031%=      5-min Rain = 0
KST2 202249Z 17016KT 38/18 A2983 RMK A01 T03760175  RH  031%=      5-min Rain = 0
KST2 202250Z 16015KT 38/17 A2983 RMK A01 T03750174  RH  031%=      5-min Rain = 0
KST2 202251Z 17014KT 37/17 A2983 RMK A01 T03740174  RH  031%=      5-min Rain = 0
KST2 202252Z 17013KT 37/18 A2983 RMK A01 T03740175  RH  031%=      5-min Rain = 0
KST2 202253Z 19016KT 38/18 A2983 RMK A01 T03760177  RH  031%=      5-min Rain = 0
KST2 202254Z 18015KT 38/18 A2983 RMK A01 T03770177  RH  031%=      5-min Rain = 0
KST2 202255Z 17014KT 38/18 A2983 RMK A01 T03770177  RH  031%=      5-min Rain = 0
KST2 202256Z 16015KT 38/18 A2983 RMK A01 T03770178  RH  031%=      5-min Rain = 0
KST2 202257Z 16014KT 38/18 A2983 RMK A01 T03770177  RH  031%=      5-min Rain = 0
KST2 202258Z 17012KT 38/18 A2983 RMK A01 T03760177  RH  031%=      5-min Rain = 0
KST2 202259Z 19015KT 38/18 A2983 RMK A01 T03770178  RH  031%=      5-min Rain = 0
KST2 202300Z 18013KT 38/18 A2983 RMK A01 T03760178  RH  031%=      5-min Rain = 0
KST2 202301Z 16014KT 38/18 A2983 RMK A01 T03760178  RH  031%=      5-min Rain = 0
KST2 202302Z 16013KT 38/18 A2983 RMK A01 T03760177  RH  031%=      5-min Rain = 0
KST2 202303Z 16015G20KT 38/18 A2982 RMK A01 T03760177  RH  031%=      5-min Rain = 0
KST2 202304Z 17017KT 38/17 A2982 RMK A01 T03770174  RH  031%=      5-min Rain = 0
KST2 202305Z 16015KT 38/17 A2982 RMK A01 T03750173  RH  030%=      5-min Rain = 0
KST2 202306Z 17014KT 38/17 A2982 RMK A01 T03750172  RH  030%=      5-min Rain = 0
KST2 202307Z 16012KT 38/17 A2982 RMK A01 T03750173  RH  031%=      5-min Rain = 0
KST2 202308Z 16015KT 38/17 A2982 RMK A01 T03770174  RH  031%=      5-min Rain = 0
KST2 202309Z 16017KT 38/17 A2982 RMK A01 T03780172  RH  030%=      5-min Rain = 0
KST2 202310Z 17018KT 38/17 A2982 RMK A01 T03760171  RH  030%=      5-min Rain = 0
KST2 202311Z 16017KT 37/17 A2982 RMK A01 T03740170  RH  030%=      5-min Rain = 0
KST2 202312Z 16016KT 37/17 A2982 RMK A01 T03740172  RH  030%=      5-min Rain = 0
KST2 202313Z 15015KT 38/17 A2982 RMK A01 T03750172  RH  030%=      5-min Rain = 0
KST2 202314Z 15014KT 38/17 A2982 RMK A01 T03760171  RH  030%=      5-min Rain = 0
KST2 202315Z 15013KT 38/17 A2982 RMK A01 T03760171  RH  030%=      5-min Rain = 0
KST2 202316Z 15017KT 38/17 A2982 RMK A01 T03760170  RH  030%=      5-min Rain = 0
KST2 202317Z 16013KT 38/17 A2982 RMK A01 T03760171  RH  030%=      5-min Rain = 0
KST2 202318Z 17013KT 38/17 A2982 RMK A01 T03760172  RH  030%=      5-min Rain = 0
KST2 202319Z 15015G20KT 38/17 A2982 RMK A01 T03780172  RH  030%=      5-min Rain = 0
KST2 202320Z 16018KT 38/17 A2982 RMK A01 T03780171  RH  030%=      5-min Rain = 0
KST2 202321Z 17016KT 38/17 A2982 RMK A01 T03760171  RH  030%=      5-min Rain = 0
KST2 202322Z 17021KT 38/17 A2982 RMK A01 T03760169  RH  030%=      5-min Rain = 0
KST2 202323Z 17016KT 38/17 A2982 RMK A01 T03750167  RH  029%=      5-min Rain = 0
KST2 202324Z 17018KT 37/17 A2982 RMK A01 T03740168  RH  030%=      5-min Rain = 0
KST2 202325Z 17017KT 38/17 A2982 RMK A01 T03750167  RH  030%=      5-min Rain = 0
KST2 202326Z 16015KT 37/17 A2982 RMK A01 T03740167  RH  030%=      5-min Rain = 0
KST2 202327Z 16015KT 37/17 A2982 RMK A01 T03740167  RH  030%=      5-min Rain = 0
KST2 202328Z 16018KT 37/17 A2982 RMK A01 T03740166  RH  030%=      5-min Rain = 0
KST2 202329Z 17015G20KT 37/17 A2982 RMK A01 T03730167  RH  030%=      5-min Rain = 0
KST2 202330Z 17017KT 37/17 A2982 RMK A01 T03740167  RH  030%=      5-min Rain = 0
KST2 202331Z 16018KT 37/17 A2982 RMK A01 T03730168  RH  030%=      5-min Rain = 0
KST2 202332Z 17017G22KT 37/17 A2982 RMK A01 T03730168  RH  030%=      5-min Rain = 0
KST2 202333Z 16019KT 37/17 A2982 RMK A01 T03720167  RH  030%=      5-min Rain = 0
KST2 202334Z 16019KT 37/17 A2982 RMK A01 T03720167  RH  030%=      5-min Rain = 0
KST2 202335Z 17019KT 37/17 A2982 RMK A01 T03720166  RH  030%=      5-min Rain = 0
KST2 202336Z 17019KT 37/17 A2982 RMK A01 T03730166  RH  030%=      5-min Rain = 0
KST2 202337Z 17016KT 37/17 A2982 RMK A01 T03730167  RH  030%=      5-min Rain = 0
KST2 202338Z 16016KT 37/17 A2982 RMK A01 T03730167  RH  030%=      5-min Rain = 0
KST2 202339Z 16017KT 37/17 A2982 RMK A01 T03730167  RH  030%=      5-min Rain = 0
KST2 202340Z 16018KT 37/17 A2982 RMK A01 T03740167  RH  030%=      5-min Rain = 0
KST2 202341Z 16017KT 37/17 A2982 RMK A01 T03740167  RH  030%=      5-min Rain = 0
KST2 202342Z 16016KT 37/17 A2982 RMK A01 T03730165  RH  029%=      5-min Rain = 0
KST2 202343Z 16017KT 37/17 A2982 RMK A01 T03730165  RH  029%=      5-min Rain = 0
KST2 202344Z 16016KT 37/17 A2982 RMK A01 T03730165  RH  029%=      5-min Rain = 0
KST2 202345Z 16017KT 37/17 A2982 RMK A01 T03730166  RH  030%=      5-min Rain = 0
KST2 202346Z 16013KT 37/17 A2982 RMK A01 T03720166  RH  030%=      5-min Rain = 0
KST2 202347Z 16012KT 37/17 A2982 RMK A01 T03720168  RH  030%=      5-min Rain = 0
KST2 202348Z 16013KT 37/17 A2982 RMK A01 T03740169  RH  030%=      5-min Rain = 0
KST2 202349Z 15017G22KT 38/17 A2982 RMK A01 T03750168  RH  030%=      5-min Rain = 0
KST2 202350Z 16019KT 38/17 A2982 RMK A01 T03750168  RH  030%=      5-min Rain = 0
KST2 202351Z 15019KT 37/17 A2982 RMK A01 T03730167  RH  030%=      5-min Rain = 0
KST2 202352Z 16016KT 37/17 A2982 RMK A01 T03720166  RH  030%=      5-min Rain = 0
KST2 202353Z 16013KT 37/17 A2982 RMK A01 T03710167  RH  030%=      5-min Rain = 0
KST2 202354Z 17016KT 37/17 A2982 RMK A01 T03710167  RH  030%=      5-min Rain = 0
KST2 202355Z 17015KT 37/17 A2982 RMK A01 T03720168  RH  030%=      5-min Rain = 0
KST2 202356Z 18016KT 37/17 A2982 RMK A01 T03720168  RH  030%=      5-min Rain = 0
KST2 202357Z 17014KT 37/17 A2982 RMK A01 T03730168  RH  030%=      5-min Rain = 0
KST2 202358Z 17015KT 37/17 A2982 RMK A01 T03730168  RH  030%=      5-min Rain = 0
KST2 202359Z 17021KT 37/17 A2981 RMK A01 T03730165  RH  029%=      5-min Rain = 0
KST2 210000Z 18018KT 37/16 A2981 RMK A01 T03720163  RH  029%=      5-min Rain = 0
KST2 210001Z 17015KT 37/16 A2982 RMK A01 T03720164  RH  029%=      5-min Rain = 0
KST2 210002Z 17014KT 37/16 A2982 RMK A01 T03720164  RH  029%=      5-min Rain = 0
KST2 210003Z 18014KT 37/17 A2982 RMK A01 T03720165  RH  029%=      5-min Rain = 0
KST2 210004Z 15013G18KT 37/17 A2982 RMK A01 T03720166  RH  030%=      5-min Rain = 0
KST2 210005Z 15017KT 37/17 A2981 RMK A01 T03730172  RH  031%=      5-min Rain = 0
KST2 210006Z 15016KT 37/17 A2981 RMK A01 T03720174  RH  031%=      5-min Rain = 0
KST2 210007Z 16014KT 37/17 A2981 RMK A01 T03710174  RH  032%=      5-min Rain = 0
KST2 210008Z 15016KT 37/17 A2981 RMK A01 T03700174  RH  032%=      5-min Rain = 0
KST2 210009Z 16013KT 37/17 A2981 RMK A01 T03690174  RH  032%=      5-min Rain = 0
KST2 210010Z 16014KT 37/17 A2982 RMK A01 T03690174  RH  032%=      5-min Rain = 0
KST2 210011Z 17014KT 37/17 A2982 RMK A01 T03690170  RH  031%=      5-min Rain = 0
KST2 210012Z 17016KT 37/17 A2981 RMK A01 T03690169  RH  031%=      5-min Rain = 0
KST2 210013Z 16014KT 37/17 A2981 RMK A01 T03690169  RH  031%=      5-min Rain = 0
KST2 210014Z 16013KT 37/17 A2982 RMK A01 T03700171  RH  031%=      5-min Rain = 0
KST2 210015Z 15014KT 37/17 A2982 RMK A01 T03700171  RH  031%=      5-min Rain = 0
KST2 210016Z 15014G19KT 37/17 A2982 RMK A01 T03700172  RH  031%=      5-min Rain = 0
KST2 210017Z 15015KT 37/17 A2982 RMK A01 T03700172  RH  031%=      5-min Rain = 0
KST2 210018Z 16014KT 37/17 A2982 RMK A01 T03690172  RH  031%=      5-min Rain = 0
KST2 210019Z 16014KT 37/17 A2982 RMK A01 T03680173  RH  032%=      5-min Rain = 0
KST2 210020Z 16014KT 37/17 A2982 RMK A01 T03680173  RH  032%=      5-min Rain = 0
KST2 210021Z 16013KT 37/17 A2982 RMK A01 T03680174  RH  032%=      5-min Rain = 0
KST2 210022Z 16013KT 37/17 A2982 RMK A01 T03680173  RH  032%=      5-min Rain = 0
KST2 210023Z 15015KT 37/17 A2982 RMK A01 T03670174  RH  032%=      5-min Rain = 0
KST2 210024Z 15013KT 37/17 A2982 RMK A01 T03670174  RH  032%=      5-min Rain = 0
KST2 210025Z 15016G21KT 37/17 A2982 RMK A01 T03670173  RH  032%=      5-min Rain = 0
KST2 210026Z 15016KT 37/17 A2982 RMK A01 T03660172  RH  032%=      5-min Rain = 0
KST2 210027Z 15015KT 37/17 A2982 RMK A01 T03660172  RH  032%=      5-min Rain = 0
KST2 210028Z 15015KT 37/17 A2982 RMK A01 T03660173  RH  032%=      5-min Rain = 0
KST2 210029Z 16015KT 37/17 A2982 RMK A01 T03660173  RH  032%=      5-min Rain = 0
KST2 210030Z 15014KT 37/17 A2982 RMK A01 T03650172  RH  032%=      5-min Rain = 0
KST2 210031Z 15015KT 37/17 A2982 RMK A01 T03650171  RH  032%=      5-min Rain = 0
KST2 210032Z 15016KT 37/17 A2982 RMK A01 T03650170  RH  032%=      5-min Rain = 0
KST2 210033Z 16015KT 36/17 A2982 RMK A01 T03640170  RH  032%=      5-min Rain = 0
KST2 210034Z 16014KT 36/17 A2982 RMK A01 T03640170  RH  032%=      5-min Rain = 0
KST2 210035Z 15014KT 36/17 A2982 RMK A01 T03640170  RH  032%=      5-min Rain = 0
KST2 210036Z 15014KT 36/17 A2982 RMK A01 T03640171  RH  032%=      5-min Rain = 0
KST2 210037Z 15014KT 36/17 A2982 RMK A01 T03640172  RH  032%=      5-min Rain = 0
KST2 210038Z 15013KT 36/17 A2982 RMK A01 T03640172  RH  032%=      5-min Rain = 0
KST2 210039Z 16015KT 36/17 A2982 RMK A01 T03630172  RH  032%=      5-min Rain = 0
KST2 210040Z 16015KT 36/17 A2982 RMK A01 T03630172  RH  032%=      5-min Rain = 0
KST2 210041Z 15015KT 36/17 A2982 RMK A01 T03630172  RH  032%=      5-min Rain = 0
KST2 210042Z 15014KT 36/17 A2982 RMK A01 T03630171  RH  032%=      5-min Rain = 0
KST2 210043Z 15014KT 36/17 A2982 RMK A01 T03620171  RH  032%=      5-min Rain = 0
KST2 210044Z 15013KT 36/17 A2982 RMK A01 T03630173  RH  033%=      5-min Rain = 0
KST2 210045Z 16012KT 36/17 A2982 RMK A01 T03630174  RH  033%=      5-min Rain = 0
KST2 210046Z 15013KT 36/18 A2982 RMK A01 T03620175  RH  033%=      5-min Rain = 0
KST2 210047Z 15016KT 36/18 A2982 RMK A01 T03610175  RH  033%=      5-min Rain = 0
KST2 210048Z 15013KT 36/18 A2982 RMK A01 T03610175  RH  033%=      5-min Rain = 0
KST2 210049Z 15012KT 36/18 A2982 RMK A01 T03610175  RH  034%=      5-min Rain = 0
KST2 210050Z 15013KT 36/18 A2982 RMK A01 T03610175  RH  034%=      5-min Rain = 0
KST2 210051Z 15015KT 36/18 A2982 RMK A01 T03600175  RH  034%=      5-min Rain = 0
KST2 210052Z 15012KT 36/17 A2982 RMK A01 T03600174  RH  034%=      5-min Rain = 0
KST2 210053Z 16013KT 36/18 A2982 RMK A01 T03590175  RH  034%=      5-min Rain = 0
KST2 210054Z 15012KT 36/18 A2982 RMK A01 T03590175  RH  034%=      5-min Rain = 0
KST2 210055Z 15013KT 36/18 A2982 RMK A01 T03590175  RH  034%=      5-min Rain = 0
KST2 210056Z 15014KT 36/18 A2982 RMK A01 T03580175  RH  034%=      5-min Rain = 0
KST2 210057Z 14013KT 36/17 A2982 RMK A01 T03580174  RH  034%=      5-min Rain = 0
KST2 210058Z 15015KT 36/18 A2982 RMK A01 T03580175  RH  034%=      5-min Rain = 0
KST2 210059Z 15013KT 36/18 A2982 RMK A01 T03570175  RH  034%=      5-min Rain = 0
KST2 210100Z 15011KT 36/18 A2982 RMK A01 T03570176  RH  034%=      5-min Rain = 0
KST2 210101Z 15011KT 36/18 A2982 RMK A01 T03570176  RH  034%=      5-min Rain = 0
KST2 210102Z 15011KT 36/18 A2982 RMK A01 T03560176  RH  035%=      5-min Rain = 0
KST2 210103Z 15013KT 36/18 A2982 RMK A01 T03560175  RH  035%=      5-min Rain = 0
KST2 210104Z 15012KT 36/18 A2982 RMK A01 T03550175  RH  034%=      5-min Rain = 0
KST2 210105Z 15012KT 36/18 A2982 RMK A01 T03550175  RH  035%=      5-min Rain = 0
KST2 210106Z 15012KT 35/18 A2982 RMK A01 T03540175  RH  035%=      5-min Rain = 0
KST2 210107Z 15012KT 35/18 A2982 RMK A01 T03540175  RH  035%=      5-min Rain = 0
KST2 210108Z 15012KT 35/17 A2982 RMK A01 T03530174  RH  035%=      5-min Rain = 0
KST2 210109Z 15013KT 35/17 A2982 RMK A01 T03530174  RH  035%=      5-min Rain = 0
KST2 210110Z 15014KT 35/17 A2982 RMK A01 T03520174  RH  035%=      5-min Rain = 0
KST2 210111Z 14012KT 35/17 A2982 RMK A01 T03520174  RH  035%=      5-min Rain = 0
KST2 210112Z 15013KT 35/17 A2982 RMK A01 T03520174  RH  035%=      5-min Rain = 0
KST2 210113Z 15012KT 35/17 A2982 RMK A01 T03510174  RH  035%=      5-min Rain = 0
KST2 210114Z 15013KT 35/17 A2983 RMK A01 T03510174  RH  035%=      5-min Rain = 0
KST2 210115Z 15013KT 35/17 A2983 RMK A01 T03500174  RH  035%=      5-min Rain = 0
KST2 210116Z 15012KT 35/17 A2983 RMK A01 T03500174  RH  035%=      5-min Rain = 0
KST2 210117Z 14012KT 35/17 A2983 RMK A01 T03490174  RH  035%=      5-min Rain = 0
KST2 210118Z 15011KT 35/17 A2983 RMK A01 T03490173  RH  035%=      5-min Rain = 0
KST2 210119Z 14012KT 35/17 A2983 RMK A01 T03490174  RH  035%=      5-min Rain = 0
KST2 210120Z 15011KT 35/17 A2983 RMK A01 T03480174  RH  036%=      5-min Rain = 0
KST2 210121Z 14010KT 35/17 A2983 RMK A01 T03480174  RH  036%=      5-min Rain = 0
KST2 210122Z 14011KT 35/17 A2983 RMK A01 T03470174  RH  036%=      5-min Rain = 0
KST2 210123Z 14011KT 35/17 A2983 RMK A01 T03470174  RH  036%=      5-min Rain = 0
KST2 210124Z 14011KT 35/17 A2983 RMK A01 T03460174  RH  036%=      5-min Rain = 0
KST2 210125Z 14010KT 35/17 A2983 RMK A01 T03450174  RH  036%=      5-min Rain = 0
KST2 210126Z 14010KT 35/17 A2983 RMK A01 T03450174  RH  036%=      5-min Rain = 0
KST2 210127Z 15012KT 34/17 A2983 RMK A01 T03440174  RH  036%=      5-min Rain = 0
KST2 210128Z 14011KT 34/17 A2983 RMK A01 T03440174  RH  037%=      5-min Rain = 0
KST2 210129Z 14011KT 34/18 A2983 RMK A01 T03440175  RH  037%=      5-min Rain = 0
KST2 210130Z 15011KT 34/18 A2983 RMK A01 T03430175  RH  037%=      5-min Rain = 0
KST2 210131Z 14011KT 34/18 A2983 RMK A01 T03420175  RH  037%=      5-min Rain = 0
KST2 210132Z 14012KT 34/18 A2983 RMK A01 T03420175  RH  037%=      5-min Rain = 0
KST2 210133Z 14011KT 34/18 A2983 RMK A01 T03420175  RH  037%=      5-min Rain = 0
KST2 210134Z 14010KT 34/18 A2983 RMK A01 T03410175  RH  037%=      5-min Rain = 0
KST2 210135Z 14011KT 34/18 A2983 RMK A01 T03410175  RH  037%=      5-min Rain = 0
KST2 210136Z 14011KT 34/18 A2983 RMK A01 T03400175  RH  038%=      5-min Rain = 0
KST2 210137Z 14011KT 34/18 A2983 RMK A01 T03400175  RH  038%=      5-min Rain = 0
KST2 210138Z 14010KT 34/18 A2983 RMK A01 T03390175  RH  038%=      5-min Rain = 0
KST2 210139Z 14010KT 34/18 A2983 RMK A01 T03380175  RH  038%=      5-min Rain = 0
KST2 210140Z 14010KT 34/18 A2983 RMK A01 T03380175  RH  038%=      5-min Rain = 0
KST2 210141Z 14011KT 34/18 A2983 RMK A01 T03370175  RH  038%=      5-min Rain = 0
KST2 210142Z 14010KT 34/18 A2983 RMK A01 T03370175  RH  038%=      5-min Rain = 0
KST2 210143Z 14010KT 34/18 A2983 RMK A01 T03360175  RH  038%=      5-min Rain = 0
KST2 210144Z 14009KT 34/18 A2983 RMK A01 T03360175  RH  038%=      5-min Rain = 0
KST2 210145Z 14009KT 34/18 A2983 RMK A01 T03350175  RH  038%=      5-min Rain = 0
KST2 210146Z 14009KT 33/18 A2983 RMK A01 T03340175  RH  039%=      5-min Rain = 0
KST2 210147Z 14009KT 33/18 A2983 RMK A01 T03340175  RH  039%=      5-min Rain = 0
KST2 210148Z 14009KT 33/18 A2983 RMK A01 T03330175  RH  039%=      5-min Rain = 0
KST2 210149Z 14009KT 33/18 A2983 RMK A01 T03320175  RH  039%=      5-min Rain = 0
KST2 210150Z 14009KT 33/18 A2983 RMK A01 T03320175  RH  039%=      5-min Rain = 0
KST2 210151Z 14009KT 33/18 A2983 RMK A01 T03310175  RH  039%=      5-min Rain = 0
KST2 210152Z 14010KT 33/18 A2983 RMK A01 T03310175  RH  039%=      5-min Rain = 0
KST2 210153Z 14009KT 33/18 A2983 RMK A01 T03300175  RH  040%=      5-min Rain = 0
KST2 210154Z 14009KT 33/18 A2983 RMK A01 T03300175  RH  040%=      5-min Rain = 0
KST2 210155Z 14009KT 33/18 A2983 RMK A01 T03290175  RH  040%=      5-min Rain = 0
KST2 210156Z 14009KT 33/18 A2983 RMK A01 T03290175  RH  040%=      5-min Rain = 0
KST2 210157Z 14010KT 33/18 A2983 RMK A01 T03280175  RH  040%=      5-min Rain = 0
KST2 210158Z 14010KT 33/18 A2983 RMK A01 T03280175  RH  040%=      5-min Rain = 0
KST2 210159Z 14010KT 33/18 A2983 RMK A01 T03270175  RH  040%=      5-min Rain = 0
KST2 210200Z 14009KT 33/18 A2983 RMK A01 T03270176  RH  041%=      5-min Rain = 0
KST2 210201Z 14009KT 33/18 A2983 RMK A01 T03260176  RH  041%=      5-min Rain = 0
KST2 210202Z 14009KT 33/18 A2983 RMK A01 T03250176  RH  041%=      5-min Rain = 0
KST2 210203Z 14009KT 33/18 A2983 RMK A01 T03250176  RH  041%=      5-min Rain = 0
KST2 210204Z 14011KT 32/18 A2983 RMK A01 T03240176  RH  041%=      5-min Rain = 0
KST2 210205Z 14009KT 32/18 A2983 RMK A01 T03240176  RH  041%=      5-min Rain = 0
KST2 210206Z 14010KT 32/18 A2983 RMK A01 T03240176  RH  041%=      5-min Rain = 0
KST2 210207Z 14010KT 32/18 A2983 RMK A01 T03240176  RH  041%=      5-min Rain = 0
KST2 210208Z 14009KT 32/18 A2983 RMK A01 T03240176  RH  041%=      5-min Rain = 0
KST2 210209Z 14009KT 32/18 A2983 RMK A01 T03230175  RH  041%=      5-min Rain = 0
KST2 210210Z 14008KT 32/18 A2983 RMK A01 T03230175  RH  041%=      5-min Rain = 0
KST2 210211Z 14009KT 32/18 A2984 RMK A01 T03220175  RH  041%=      5-min Rain = 0
KST2 210212Z 14009KT 32/17 A2984 RMK A01 T03220174  RH  041%=      5-min Rain = 0
KST2 210213Z 14009KT 32/17 A2984 RMK A01 T03220174  RH  041%=      5-min Rain = 0
KST2 210214Z 14009KT 32/18 A2984 RMK A01 T03220175  RH  041%=      5-min Rain = 0
KST2 210215Z 14009KT 32/17 A2984 RMK A01 T03220174  RH  041%=      5-min Rain = 0
KST2 210216Z 14010KT 32/17 A2984 RMK A01 T03210174  RH  041%=      5-min Rain = 0
KST2 210217Z 14009KT 32/17 A2984 RMK A01 T03210173  RH  041%=      5-min Rain = 0
KST2 210218Z 14009KT 32/17 A2984 RMK A01 T03210173  RH  041%=      5-min Rain = 0
KST2 210219Z 14009KT 32/17 A2984 RMK A01 T03210173  RH  041%=      5-min Rain = 0
KST2 210220Z 14009KT 32/17 A2984 RMK A01 T03210173  RH  041%=      5-min Rain = 0
KST2 210221Z 13009KT 32/17 A2984 RMK A01 T03200173  RH  041%=      5-min Rain = 0
KST2 210222Z 13009KT 32/17 A2984 RMK A01 T03200173  RH  041%=      5-min Rain = 0
KST2 210223Z 13009KT 32/17 A2984 RMK A01 T03190173  RH  042%=      5-min Rain = 0
KST2 210224Z 13010KT 32/17 A2984 RMK A01 T03190172  RH  042%=      5-min Rain = 0
KST2 210225Z 13009KT 32/17 A2984 RMK A01 T03180173  RH  042%=      5-min Rain = 0
KST2 210226Z 13009KT 32/17 A2984 RMK A01 T03180172  RH  042%=      5-min Rain = 0
KST2 210227Z 13009KT 32/17 A2984 RMK A01 T03180172  RH  042%=      5-min Rain = 0
KST2 210228Z 13010KT 32/17 A2984 RMK A01 T03180173  RH  042%=      5-min Rain = 0
KST2 210229Z 13010KT 32/17 A2984 RMK A01 T03170172  RH  042%=      5-min Rain = 0
KST2 210230Z 13009KT 32/17 A2984 RMK A01 T03170172  RH  042%=      5-min Rain = 0
KST2 210231Z 13008KT 32/17 A2984 RMK A01 T03160172  RH  042%=      5-min Rain = 0
KST2 210232Z 13009KT 32/17 A2984 RMK A01 T03160172  RH  042%=      5-min Rain = 0
KST2 210233Z 13009KT 32/17 A2984 RMK A01 T03150172  RH  042%=      5-min Rain = 0
KST2 210234Z 13008KT 31/17 A2984 RMK A01 T03140172  RH  043%=      5-min Rain = 0
KST2 210235Z 13008KT 31/17 A2984 RMK A01 T03140172  RH  043%=      5-min Rain = 0
KST2 210236Z 13008KT 31/17 A2984 RMK A01 T03130173  RH  043%=      5-min Rain = 0
KST2 210237Z 13009KT 31/17 A2984 RMK A01 T03130172  RH  043%=      5-min Rain = 0
KST2 210238Z 13008KT 31/17 A2984 RMK A01 T03120173  RH  043%=      5-min Rain = 0
KST2 210239Z 13009KT 31/17 A2984 RMK A01 T03120173  RH  043%=      5-min Rain = 0
KST2 210240Z 13010KT 31/17 A2984 RMK A01 T03110173  RH  044%=      5-min Rain = 0
KST2 210241Z 13010KT 31/17 A2984 RMK A01 T03110174  RH  044%=      5-min Rain = 0
KST2 210242Z 13010KT 31/17 A2984 RMK A01 T03110174  RH  044%=      5-min Rain = 0
KST2 210243Z 13009KT 31/18 A2984 RMK A01 T03110175  RH  044%=      5-min Rain = 0
KST2 210244Z 13009KT 31/18 A2985 RMK A01 T03110175  RH  044%=      5-min Rain = 0
KST2 210245Z 13010KT 31/18 A2985 RMK A01 T03100175  RH  044%=      5-min Rain = 0
KST2 210246Z 13010KT 31/18 A2985 RMK A01 T03100176  RH  045%=      5-min Rain = 0
KST2 210247Z 13009KT 31/18 A2985 RMK A01 T03090176  RH  045%=      5-min Rain = 0
KST2 210248Z 13010KT 31/18 A2985 RMK A01 T03090176  RH  045%=      5-min Rain = 0
KST2 210249Z 13009KT 31/18 A2985 RMK A01 T03090176  RH  045%=      5-min Rain = 0
KST2 210250Z 13009KT 31/18 A2985 RMK A01 T03080176  RH  045%=      5-min Rain = 0
KST2 210251Z 13010KT 31/18 A2985 RMK A01 T03080177  RH  045%=      5-min Rain = 0
KST2 210252Z 13009KT 31/18 A2985 RMK A01 T03070177  RH  046%=      5-min Rain = 0
KST2 210253Z 13010KT 31/18 A2985 RMK A01 T03070177  RH  046%=      5-min Rain = 0
KST2 210254Z 13010KT 31/18 A2985 RMK A01 T03060177  RH  046%=      5-min Rain = 0
KST2 210255Z 13009KT 31/18 A2985 RMK A01 T03060178  RH  046%=      5-min Rain = 0
KST2 210256Z 13010KT 31/18 A2985 RMK A01 T03060178  RH  046%=      5-min Rain = 0
KST2 210257Z 13010KT 31/18 A2985 RMK A01 T03060178  RH  046%=      5-min Rain = 0
KST2 210258Z 13010KT 31/18 A2985 RMK A01 T03070179  RH  046%=      5-min Rain = 0
KST2 210259Z 13009KT 31/18 A2985 RMK A01 T03060178  RH  046%=      5-min Rain = 0
KST2 210300Z 13010KT 31/18 A2985 RMK A01 T03060178  RH  047%=      5-min Rain = 0
KST2 210301Z 13010KT 31/18 A2985 RMK A01 T03050179  RH  047%=      5-min Rain = 0
KST2 210302Z 13010KT 31/18 A2985 RMK A01 T03050179  RH  047%=      5-min Rain = 0
KST2 210303Z 13011KT 31/18 A2985 RMK A01 T03050179  RH  047%=      5-min Rain = 0
KST2 210304Z 13011KT 31/18 A2985 RMK A01 T03050179  RH  047%=      5-min Rain = 0
KST2 210305Z 13010KT 31/18 A2985 RMK A01 T03050180  RH  047%=      5-min Rain = 0
KST2 210306Z 13011KT 31/18 A2985 RMK A01 T03060180  RH  047%=      5-min Rain = 0
KST2 210307Z 13011KT 31/18 A2986 RMK A01 T03060180  RH  047%=      5-min Rain = 0
KST2 210308Z 13010KT 31/18 A2986 RMK A01 T03050180  RH  047%=      5-min Rain = 0
KST2 210309Z 13010KT 31/18 A2986 RMK A01 T03050179  RH  047%=      5-min Rain = 0
KST2 210310Z 13011KT 30/18 A2986 RMK A01 T03040179  RH  047%=      5-min Rain = 0
KST2 210311Z 13011KT 30/18 A2986 RMK A01 T03040179  RH  047%=      5-min Rain = 0
KST2 210312Z 13010KT 31/18 A2986 RMK A01 T03050180  RH  047%=      5-min Rain = 0
KST2 210313Z 13011KT 31/18 A2986 RMK A01 T03050180  RH  047%=      5-min Rain = 0
KST2 210314Z 13011KT 31/18 A2986 RMK A01 T03050180  RH  047%=      5-min Rain = 0
KST2 210315Z 13011KT 31/18 A2986 RMK A01 T03050180  RH  047%=      5-min Rain = 0
KST2 210316Z 13011KT 31/18 A2986 RMK A01 T03050180  RH  047%=      5-min Rain = 0
KST2 210317Z 13011KT 31/18 A2986 RMK A01 T03050180  RH  047%=      5-min Rain = 0
KST2 210318Z 14012KT 30/18 A2986 RMK A01 T03040180  RH  047%=      5-min Rain = 0
KST2 210319Z 13011KT 30/18 A2986 RMK A01 T03040180  RH  047%=      5-min Rain = 0
KST2 210320Z 14011KT 30/18 A2986 RMK A01 T03040180  RH  048%=      5-min Rain = 0
KST2 210321Z 14010KT 30/18 A2986 RMK A01 T03040180  RH  048%=      5-min Rain = 0
KST2 210322Z 14011KT 30/18 A2986 RMK A01 T03030180  RH  048%=      5-min Rain = 0
KST2 210323Z 14011KT 30/18 A2986 RMK A01 T03030180  RH  048%=      5-min Rain = 0
KST2 210324Z 14010KT 30/18 A2986 RMK A01 T03030180  RH  048%=      5-min Rain = 0
KST2 210325Z 14011KT 30/18 A2986 RMK A01 T03020180  RH  048%=      5-min Rain = 0
KST2 210326Z 14010KT 30/18 A2986 RMK A01 T03020180  RH  048%=      5-min Rain = 0
KST2 210327Z 14011KT 30/18 A2986 RMK A01 T03020180  RH  048%=      5-min Rain = 0
KST2 210328Z 14012KT 30/18 A2986 RMK A01 T03020180  RH  048%=      5-min Rain = 0
KST2 210329Z 14012KT 30/18 A2986 RMK A01 T03020180  RH  048%=      5-min Rain = 0
KST2 210330Z 14013KT 30/18 A2986 RMK A01 T03020180  RH  048%=      5-min Rain = 0
KST2 210331Z 14012KT 30/18 A2986 RMK A01 T03020179  RH  048%=      5-min Rain = 0
KST2 210332Z 14012KT 30/18 A2986 RMK A01 T03020179  RH  048%=      5-min Rain = 0
KST2 210333Z 14013KT 30/18 A2986 RMK A01 T03020179  RH  048%=      5-min Rain = 0
KST2 210334Z 14012KT 30/18 A2986 RMK A01 T03020179  RH  048%=      5-min Rain = 0
KST2 210335Z 14012KT 30/18 A2986 RMK A01 T03020179  RH  048%=      5-min Rain = 0
KST2 210336Z 14011KT 30/18 A2986 RMK A01 T03020179  RH  048%=      5-min Rain = 0
KST2 210337Z 14012KT 30/18 A2986 RMK A01 T03020179  RH  048%=      5-min Rain = 0
KST2 210338Z 14011KT 30/18 A2986 RMK A01 T03020178  RH  047%=      5-min Rain = 0
KST2 210339Z 14013KT 30/18 A2986 RMK A01 T03020178  RH  047%=      5-min Rain = 0
KST2 210340Z 14011KT 30/18 A2986 RMK A01 T03020178  RH  047%=      5-min Rain = 0
KST2 210341Z 14012KT 30/18 A2986 RMK A01 T03020178  RH  047%=      5-min Rain = 0
KST2 210342Z 14012KT 30/18 A2986 RMK A01 T03020177  RH  047%=      5-min Rain = 0
KST2 210343Z 14013KT 30/18 A2986 RMK A01 T03020177  RH  047%=      5-min Rain = 0
KST2 210344Z 14013KT 30/18 A2986 RMK A01 T03020177  RH  047%=      5-min Rain = 0
KST2 210345Z 14012KT 30/18 A2987 RMK A01 T03020177  RH  047%=      5-min Rain = 0
KST2 210346Z 14010KT 30/18 A2987 RMK A01 T03020177  RH  047%=      5-min Rain = 0
KST2 210347Z 14011KT 30/18 A2987 RMK A01 T03020177  RH  047%=      5-min Rain = 0
KST2 210348Z 14012KT 30/18 A2987 RMK A01 T03020176  RH  047%=      5-min Rain = 0
KST2 210349Z 14012KT 30/18 A2987 RMK A01 T03020176  RH  047%=      5-min Rain = 0
KST2 210350Z 14012KT 30/18 A2987 RMK A01 T03010176  RH  047%=      5-min Rain = 0
KST2 210351Z 14012KT 30/18 A2987 RMK A01 T03020176  RH  047%=      5-min Rain = 0
KST2 210352Z 14013KT 30/18 A2987 RMK A01 T03020176  RH  047%=      5-min Rain = 0
KST2 210353Z 15013KT 30/18 A2987 RMK A01 T03020176  RH  047%=      5-min Rain = 0
KST2 210354Z 15013KT 30/18 A2987 RMK A01 T03020176  RH  047%=      5-min Rain = 0
KST2 210355Z 15012KT 30/18 A2987 RMK A01 T03020176  RH  047%=      5-min Rain = 0
KST2 210356Z 15012KT 30/18 A2987 RMK A01 T03020176  RH  047%=      5-min Rain = 0
KST2 210357Z 15013KT 30/18 A2987 RMK A01 T03020176  RH  047%=      5-min Rain = 0
KST2 210358Z 15012KT 30/18 A2987 RMK A01 T03020176  RH  047%=      5-min Rain = 0
KST2 210359Z 15012KT 30/18 A2987 RMK A01 T03020176  RH  047%=      5-min Rain = 0
KST2 210400Z 14013KT 30/18 A2987 RMK A01 T03010175  RH  047%=      5-min Rain = 0
KST2 210401Z 15013KT 30/18 A2987 RMK A01 T03010175  RH  047%=      5-min Rain = 0
KST2 210402Z 15012KT 30/18 A2987 RMK A01 T03010175  RH  047%=      5-min Rain = 0
KST2 210403Z 15013KT 30/18 A2987 RMK A01 T03010175  RH  047%=      5-min Rain = 0
KST2 210404Z 15012KT 30/18 A2987 RMK A01 T03010175  RH  047%=      5-min Rain = 0
KST2 210405Z 15011KT 30/18 A2987 RMK A01 T03010175  RH  047%=      5-min Rain = 0
KST2 210406Z 15012KT 30/18 A2987 RMK A01 T03010175  RH  047%=      5-min Rain = 0
KST2 210407Z 15012KT 30/18 A2987 RMK A01 T03010175  RH  047%=      5-min Rain = 0
KST2 210408Z 15012KT 30/17 A2987 RMK A01 T03010174  RH  047%=      5-min Rain = 0
KST2 210409Z 15013KT 30/17 A2987 RMK A01 T03000174  RH  047%=      5-min Rain = 0
KST2 210410Z 15012KT 30/17 A2987 RMK A01 T03010174  RH  047%=      5-min Rain = 0
KST2 210411Z 15012KT 30/17 A2987 RMK A01 T03000174  RH  047%=      5-min Rain = 0
KST2 210412Z 15011KT 30/17 A2987 RMK A01 T03000174  RH  047%=      5-min Rain = 0
KST2 210413Z 15012KT 30/17 A2987 RMK A01 T03000174  RH  047%=      5-min Rain = 0
KST2 210414Z 15012KT 30/17 A2987 RMK A01 T03000174  RH  047%=      5-min Rain = 0
KST2 210415Z 15011KT 30/17 A2987 RMK A01 T03000174  RH  047%=      5-min Rain = 0
KST2 210416Z 15012KT 30/17 A2987 RMK A01 T02990174  RH  047%=      5-min Rain = 0
KST2 210417Z 15013KT 30/17 A2987 RMK A01 T03000174  RH  047%=      5-min Rain = 0
KST2 210418Z 16012KT 30/17 A2987 RMK A01 T03000174  RH  047%=      5-min Rain = 0
KST2 210419Z 16011KT 30/17 A2987 RMK A01 T02990173  RH  047%=      5-min Rain = 0
KST2 210420Z 15011KT 30/17 A2988 RMK A01 T03000174  RH  047%=      5-min Rain = 0
KST2 210421Z 16010KT 30/17 A2988 RMK A01 T02990174  RH  047%=      5-min Rain = 0
KST2 210422Z 15010KT 30/17 A2988 RMK A01 T02990173  RH  047%=      5-min Rain = 0
KST2 210423Z 16012KT 30/17 A2987 RMK A01 T02980174  RH  047%=      5-min Rain = 0
KST2 210424Z 16011KT 30/17 A2988 RMK A01 T02980173  RH  047%=      5-min Rain = 0
KST2 210425Z 16011KT 30/17 A2987 RMK A01 T02980173  RH  047%=      5-min Rain = 0
KST2 210426Z 16011KT 30/17 A2987 RMK A01 T02980173  RH  047%=      5-min Rain = 0
KST2 210427Z 16013KT 30/17 A2987 RMK A01 T02980173  RH  047%=      5-min Rain = 0
KST2 210428Z 16012KT 30/17 A2987 RMK A01 T02980173  RH  047%=      5-min Rain = 0
KST2 210429Z 16014KT 30/17 A2987 RMK A01 T02980173  RH  047%=      5-min Rain = 0
KST2 210430Z 16011KT 30/17 A2987 RMK A01 T02980173  RH  047%=      5-min Rain = 0
KST2 210431Z 16011KT 30/17 A2987 RMK A01 T02990173  RH  047%=      5-min Rain = 0
KST2 210432Z 16011KT 30/17 A2987 RMK A01 T02980173  RH  047%=      5-min Rain = 0
KST2 210433Z 16012KT 30/17 A2987 RMK A01 T02980172  RH  047%=      5-min Rain = 0
KST2 210434Z 16012KT 30/17 A2987 RMK A01 T02980173  RH  047%=      5-min Rain = 0
KST2 210435Z 16011KT 30/17 A2987 RMK A01 T02980173  RH  047%=      5-min Rain = 0
KST2 210436Z 16011KT 30/17 A2987 RMK A01 T02980173  RH  047%=      5-min Rain = 0
KST2 210437Z 16011KT 30/17 A2987 RMK A01 T02980172  RH  047%=      5-min Rain = 0
KST2 210438Z 16012KT 30/17 A2988 RMK A01 T02980173  RH  047%=      5-min Rain = 0
KST2 210439Z 16013KT 30/17 A2987 RMK A01 T02980173  RH  047%=      5-min Rain = 0
KST2 210440Z 16011KT 30/17 A2988 RMK A01 T02980173  RH  047%=      5-min Rain = 0
KST2 210441Z 16011KT 30/17 A2988 RMK A01 T02970172  RH  047%=      5-min Rain = 0
KST2 210442Z 16011KT 30/17 A2988 RMK A01 T02970172  RH  047%=      5-min Rain = 0
KST2 210443Z 15011KT 30/17 A2988 RMK A01 T02980172  RH  047%=      5-min Rain = 0
KST2 210444Z 16011KT 30/17 A2988 RMK A01 T02980173  RH  047%=      5-min Rain = 0
KST2 210445Z 16013KT 30/17 A2988 RMK A01 T02980172  RH  047%=      5-min Rain = 0
KST2 210446Z 16012KT 30/17 A2988 RMK A01 T02980172  RH  047%=      5-min Rain = 0
KST2 210447Z 16012KT 30/17 A2988 RMK A01 T02980173  RH  047%=      5-min Rain = 0
KST2 210448Z 16012KT 30/17 A2988 RMK A01 T02980172  RH  047%=      5-min Rain = 0
KST2 210449Z 16012KT 30/17 A2988 RMK A01 T02980172  RH  047%=      5-min Rain = 0
KST2 210450Z 16013KT 30/17 A2988 RMK A01 T02990172  RH  047%=      5-min Rain = 0
KST2 210451Z 16012KT 30/17 A2988 RMK A01 T02990172  RH  047%=      5-min Rain = 0
KST2 210452Z 17011KT 30/17 A2988 RMK A01 T02990172  RH  047%=      5-min Rain = 0
KST2 210453Z 16011KT 30/17 A2988 RMK A01 T02990172  RH  047%=      5-min Rain = 0
KST2 210454Z 16013KT 30/17 A2988 RMK A01 T02990172  RH  047%=      5-min Rain = 0
KST2 210455Z 16012KT 30/17 A2988 RMK A01 T02990172  RH  046%=      5-min Rain = 0
KST2 210456Z 16014KT 30/17 A2988 RMK A01 T02990172  RH  046%=      5-min Rain = 0
KST2 210457Z 16013KT 30/17 A2988 RMK A01 T02990172  RH  046%=      5-min Rain = 0
KST2 210458Z 17013KT 30/17 A2988 RMK A01 T02990172  RH  046%=      5-min Rain = 0
KST2 210459Z 16013KT 30/17 A2988 RMK A01 T03000172  RH  046%=      5-min Rain = 0

Page generated in 0.0794 seconds.